Wetterdaten: Samstag, 22.10.2022
Datum Zeit Temp. Aussen Temp. o. S. Temp +5cm Feuchte Auss Luftdruck Regen Sonnenschein Regendauer Solar Windben Empfang
22.10.2022 00:00 13,4 C 12,2 C 10,0 C 96 % 1010,0 hPa 0,0 l/m 0 min 0 min 0 W/m 0,0 km/h (0 Bft) 100,00 %
22.10.2022 00:02 13,4 C 12,2 C 10,0 C 96 % 1010,0 hPa 0,0 l/m 0 min 0 min 0 W/m 0,0 km/h (0 Bft) 100,00 %
22.10.2022 00:04 13,4 C 12,2 C 10,0 C 96 % 1010,0 hPa 0,0 l/m 0 min 0 min 0 W/m 3,2 km/h (1 Bft) 100,00 %
22.10.2022 00:08 13,4 C 12,2 C 10,0 C 96 % 1009,9 hPa 0,0 l/m 0 min 0 min 0 W/m 3,2 km/h (1 Bft) 100,00 %
22.10.2022 00:10 13,4 C 12,2 C 10,0 C 96 % 1009,9 hPa 0,0 l/m 0 min 0 min 0 W/m 3,2 km/h (1 Bft) 100,00 %
22.10.2022 00:12 13,4 C 12,2 C 10,0 C 97 % 1009,9 hPa 0,0 l/m 0 min 0 min 0 W/m 3,2 km/h (1 Bft) 100,00 %
22.10.2022 00:14 13,4 C 12,8 C 10,0 C 97 % 1009,9 hPa 0,0 l/m 0 min 0 min 0 W/m 3,2 km/h (1 Bft) 97,83 %
22.10.2022 00:16 13,4 C 12,8 C 10,0 C 97 % 1009,9 hPa 0,0 l/m 0 min 0 min 0 W/m 3,2 km/h (1 Bft) 97,87 %
22.10.2022 00:18 13,4 C 12,8 C 10,0 C 97 % 1009,9 hPa 0,0 l/m 0 min 0 min 0 W/m 3,2 km/h (1 Bft) 95,74 %
22.10.2022 00:20 13,4 C 12,8 C 10,0 C 97 % 1010,0 hPa 0,0 l/m 0 min 0 min 0 W/m 3,2 km/h (1 Bft) 97,87 %
22.10.2022 00:22 13,4 C 12,8 C 10,0 C 97 % 1009,9 hPa 0,0 l/m 0 min 0 min 0 W/m 3,2 km/h (1 Bft) 98,15 %
22.10.2022 00:24 13,4 C 12,8 C 10,0 C 97 % 1009,9 hPa 0,0 l/m 0 min 0 min 0 W/m 3,2 km/h (1 Bft) 97,96 %
22.10.2022 00:26 13,4 C 12,8 C 10,0 C 97 % 1010,0 hPa 0,0 l/m 0 min 0 min 0 W/m 3,2 km/h (1 Bft) 97,87 %
22.10.2022 00:28 13,4 C 12,8 C 10,0 C 97 % 1009,9 hPa 0,0 l/m 0 min 0 min 0 W/m 3,2 km/h (1 Bft) 97,14 %
22.10.2022 00:30 13,4 C 12,8 C 10,0 C 97 % 1009,9 hPa 0,0 l/m 0 min 0 min 0 W/m 3,2 km/h (1 Bft) 97,96 %
22.10.2022 00:32 13,3 C 12,8 C 10,0 C 97 % 1009,9 hPa 0,0 l/m 0 min 0 min 0 W/m 3,2 km/h (1 Bft) 97,87 %
22.10.2022 00:34 13,3 C 12,8 C 10,0 C 97 % 1009,9 hPa 0,0 l/m 0 min 0 min 0 W/m 3,2 km/h (1 Bft) 97,87 %
22.10.2022 00:36 13,3 C 12,8 C 10,0 C 97 % 1009,9 hPa 0,0 l/m 0 min 0 min 0 W/m 3,2 km/h (1 Bft) 95,74 %
22.10.2022 00:38 13,3 C 12,8 C 10,0 C 97 % 1009,9 hPa 0,0 l/m 0 min 0 min 0 W/m 3,2 km/h (1 Bft) 97,83 %
22.10.2022 00:40 13,3 C 12,8 C 10,0 C 97 % 1009,9 hPa 0,0 l/m 0 min 0 min 0 W/m 3,2 km/h (1 Bft) 95,74 %
22.10.2022 00:42 13,3 C 12,8 C 10,0 C 97 % 1009,9 hPa 0,0 l/m 0 min 0 min 0 W/m 0,0 km/h (0 Bft) 95,74 %
22.10.2022 00:44 13,3 C 12,8 C 10,0 C 97 % 1009,9 hPa 0,0 l/m 0 min 0 min 0 W/m 3,2 km/h (1 Bft) 93,62 %
22.10.2022 00:46 13,3 C 12,2 C 10,0 C 97 % 1009,9 hPa 0,0 l/m 0 min 0 min 0 W/m 3,2 km/h (1 Bft) 95,74 %
22.10.2022 00:48 13,3 C 12,2 C 10,0 C 97 % 1010,0 hPa 0,0 l/m 0 min 0 min 0 W/m 3,2 km/h (1 Bft) 95,74 %
22.10.2022 00:50 13,3 C 12,2 C 10,0 C 97 % 1009,9 hPa 0,0 l/m 0 min 0 min 0 W/m 3,2 km/h (1 Bft) 92,45 %
22.10.2022 00:52 13,3 C 12,2 C 10,0 C 97 % 1010,0 hPa 0,0 l/m 0 min 0 min 0 W/m 3,2 km/h (1 Bft) 95,74 %
22.10.2022 00:54 13,3 C 12,2 C 10,0 C 97 % 1009,9 hPa 0,0 l/m 0 min 0 min 0 W/m 3,2 km/h (1 Bft) 95,35 %
22.10.2022 00:56 13,3 C 12,2 C 10,0 C 97 % 1009,9 hPa 0,0 l/m 0 min 0 min 0 W/m 3,2 km/h (1 Bft) 95,74 %
22.10.2022 00:58 13,3 C 12,2 C 10,0 C 97 % 1010,0 hPa 0,0 l/m 0 min 0 min 0 W/m 3,2 km/h (1 Bft) 93,62 %
22.10.2022 01:00 13,3 C 12,2 C 10,0 C 97 % 1010,0 hPa 0,0 l/m 0 min 0 min 0 W/m 3,2 km/h (1 Bft) 95,65 %
22.10.2022 01:02 13,3 C 12,2 C 10,0 C 97 % 1010,0 hPa 0,0 l/m 0 min 0 min 0 W/m 3,2 km/h (1 Bft) 95,74 %
22.10.2022 01:04 13,3 C 12,2 C 10,0 C 97 % 1010,0 hPa 0,0 l/m 0 min 0 min 0 W/m 3,2 km/h (1 Bft) 94,00 %
22.10.2022 01:06 13,3 C 12,2 C 10,0 C 97 % 1009,9 hPa 0,0 l/m 0 min 0 min 0 W/m 0,0 km/h (0 Bft) 95,74 %
22.10.2022 01:08 13,3 C 12,2 C 10,0 C 97 % 1010,0 hPa 0,0 l/m 0 min 0 min 0 W/m 0,0 km/h (0 Bft) 97,87 %
22.10.2022 01:10 13,3 C 12,2 C 10,0 C 97 % 1010,0 hPa 0,0 l/m 0 min 0 min 0 W/m 3,2 km/h (1 Bft) 95,65 %
22.10.2022 01:12 13,3 C 12,2 C 10,0 C 97 % 1009,9 hPa 0,0 l/m 0 min 0 min 0 W/m 3,2 km/h (1 Bft) 95,74 %
22.10.2022 01:14 13,3 C 12,2 C 10,0 C 97 % 1009,9 hPa 0,0 l/m 0 min 0 min 0 W/m 0,0 km/h (0 Bft) 93,62 %
22.10.2022 01:16 13,3 C 12,2 C 10,0 C 97 % 1009,9 hPa 0,0 l/m 0 min 0 min 0 W/m 0,0 km/h (0 Bft) 95,74 %
22.10.2022 01:18 13,3 C 12,2 C 10,0 C 97 % 1010,0 hPa 0,0 l/m 0 min 0 min 0 W/m 0,0 km/h (0 Bft) 97,87 %
22.10.2022 01:20 13,3 C 12,2 C 10,0 C 97 % 1010,0 hPa 0,0 l/m 0 min 0 min 0 W/m 0,0 km/h (0 Bft) 100,00 %
22.10.2022 01:22 13,3 C 12,2 C 10,0 C 97 % 1010,0 hPa 0,0 l/m 0 min 0 min 0 W/m 0,0 km/h (0 Bft) 94,29 %
22.10.2022 01:24 13,3 C 12,2 C 10,0 C 97 % 1010,0 hPa 0,0 l/m 0 min 0 min 0 W/m 0,0 km/h (0 Bft) 96,23 %
22.10.2022 01:26 13,3 C 12,8 C 10,0 C 97 % 1010,0 hPa 0,0 l/m 0 min 0 min 0 W/m 0,0 km/h (0 Bft) 100,00 %
22.10.2022 01:28 13,3 C 12,8 C 10,0 C 97 % 1009,9 hPa 0,0 l/m 0 min 0 min 0 W/m 0,0 km/h (0 Bft) 97,96 %
22.10.2022 01:30 13,3 C 12,8 C 10,0 C 97 % 1010,0 hPa 0,0 l/m 0 min 0 min 0 W/m 3,2 km/h (1 Bft) 100,00 %
22.10.2022 01:32 13,3 C 12,8 C 10,0 C 97 % 1010,0 hPa 0,0 l/m 0 min 0 min 0 W/m 6,4 km/h (2 Bft) 100,00 %
22.10.2022 01:34 13,3 C 12,8 C 10,0 C 97 % 1010,0 hPa 0,0 l/m 0 min 0 min 0 W/m 6,4 km/h (2 Bft) 97,96 %
22.10.2022 01:36 13,3 C 12,8 C 10,0 C 97 % 1010,1 hPa 0,0 l/m 0 min 0 min 0 W/m 3,2 km/h (1 Bft) 95,74 %
22.10.2022 01:38 13,3 C 12,8 C 10,0 C 97 % 1010,1 hPa 0,0 l/m 0 min 0 min 0 W/m 9,7 km/h (2 Bft) 100,00 %
22.10.2022 01:40 13,3 C 12,8 C 10,0 C 97 % 1010,2 hPa 0,0 l/m 0 min 0 min 0 W/m 6,4 km/h (2 Bft) 93,62 %
22.10.2022 01:42 13,3 C 12,8 C 10,0 C 97 % 1010,2 hPa 0,0 l/m 0 min 0 min 0 W/m 12,9 km/h (3 Bft) 100,00 %
22.10.2022 01:44 13,3 C 12,8 C 10,0 C 97 % 1010,2 hPa 0,0 l/m 0 min 0 min 0 W/m 3,2 km/h (1 Bft) 97,87 %
22.10.2022 01:46 13,4 C 12,8 C 10,0 C 97 % 1010,3 hPa 0,0 l/m 0 min 0 min 0 W/m 6,4 km/h (2 Bft) 97,14 %
22.10.2022 01:48 13,4 C 12,8 C 10,0 C 97 % 1010,3 hPa 0,0 l/m 0 min 0 min 0 W/m 6,4 km/h (2 Bft) 96,30 %
22.10.2022 01:50 13,4 C 12,8 C 10,0 C 97 % 1010,3 hPa 0,0 l/m 0 min 0 min 0 W/m 6,4 km/h (2 Bft) 97,87 %
22.10.2022 01:52 13,4 C 12,8 C 10,0 C 97 % 1010,4 hPa 0,0 l/m 0 min 0 min 0 W/m 12,9 km/h (3 Bft) 95,74 %
22.10.2022 01:54 13,4 C 12,8 C 10,0 C 97 % 1010,3 hPa 0,0 l/m 0 min 0 min 0 W/m 3,2 km/h (1 Bft) 96,00 %
22.10.2022 01:56 13,4 C 12,8 C 10,0 C 97 % 1010,4 hPa 0,0 l/m 0 min 0 min 0 W/m 3,2 km/h (1 Bft) 97,87 %
22.10.2022 01:58 13,4 C 12,8 C 10,0 C 97 % 1010,4 hPa 0,0 l/m 0 min 0 min 0 W/m 6,4 km/h (2 Bft) 95,65 %
22.10.2022 02:00 13,4 C 12,8 C 10,0 C 97 % 1010,3 hPa 0,0 l/m 0 min 0 min 0 W/m 3,2 km/h (1 Bft) 97,87 %
22.10.2022 02:02 13,4 C 12,8 C 10,0 C 97 % 1010,3 hPa 0,0 l/m 0 min 0 min 0 W/m 6,4 km/h (2 Bft) 95,74 %
22.10.2022 02:04 13,4 C 12,8 C 10,0 C 98 % 1010,3 hPa 0,0 l/m 0 min 0 min 0 W/m 6,4 km/h (2 Bft) 95,74 %
22.10.2022 02:06 13,4 C 12,8 C 10,0 C 98 % 1010,4 hPa 0,0 l/m 0 min 0 min 0 W/m 6,4 km/h (2 Bft) 97,87 %
22.10.2022 02:08 13,4 C 12,8 C 10,0 C 98 % 1010,4 hPa 0,0 l/m 0 min 0 min 0 W/m 0,0 km/h (0 Bft) 95,74 %
22.10.2022 02:10 13,4 C 12,8 C 10,0 C 98 % 1010,5 hPa 0,0 l/m 0 min 0 min 0 W/m 6,4 km/h (2 Bft) 95,65 %
22.10.2022 02:14 13,4 C 12,8 C 10,0 C 98 % 1010,5 hPa 0,0 l/m 0 min 0 min 0 W/m 3,2 km/h (1 Bft) 100,00 %
22.10.2022 02:16 13,4 C 12,8 C 10,0 C 98 % 1010,5 hPa 0,0 l/m 0 min 0 min 0 W/m 6,4 km/h (2 Bft) 91,49 %
22.10.2022 02:18 13,4 C 12,8 C 10,0 C 98 % 1010,4 hPa 0,0 l/m 0 min 0 min 0 W/m 3,2 km/h (1 Bft) 100,00 %
22.10.2022 02:20 13,4 C 12,8 C 10,0 C 98 % 1010,4 hPa 0,0 l/m 0 min 0 min 0 W/m 3,2 km/h (1 Bft) 91,49 %
22.10.2022 02:22 13,4 C 12,8 C 10,0 C 98 % 1010,4 hPa 0,0 l/m 0 min 0 min 0 W/m 3,2 km/h (1 Bft) 100,00 %
22.10.2022 02:24 13,4 C 12,2 C 10,0 C 98 % 1010,4 hPa 0,0 l/m 0 min 0 min 0 W/m 3,2 km/h (1 Bft) 97,87 %
22.10.2022 02:26 13,4 C 12,2 C 10,0 C 98 % 1010,4 hPa 0,0 l/m 0 min 0 min 0 W/m 3,2 km/h (1 Bft) 97,87 %
22.10.2022 02:28 13,4 C 12,2 C 10,0 C 98 % 1010,5 hPa 0,0 l/m 0 min 0 min 0 W/m 6,4 km/h (2 Bft) 95,74 %
22.10.2022 02:30 13,4 C 12,2 C 10,0 C 98 % 1010,5 hPa 0,0 l/m 0 min 0 min 0 W/m 6,4 km/h (2 Bft) 97,87 %
22.10.2022 02:32 13,3 C 12,2 C 10,0 C 98 % 1010,5 hPa 0,0 l/m 0 min 0 min 0 W/m 3,2 km/h (1 Bft) 100,00 %
22.10.2022 02:34 13,3 C 12,2 C 10,0 C 98 % 1010,5 hPa 0,0 l/m 0 min 0 min 0 W/m 3,2 km/h (1 Bft) 100,00 %
22.10.2022 02:36 13,3 C 12,2 C 10,0 C 98 % 1010,4 hPa 0,0 l/m 0 min 0 min 0 W/m 3,2 km/h (1 Bft) 100,00 %
22.10.2022 02:38 13,3 C 12,2 C 10,0 C 98 % 1010,4 hPa 0,0 l/m 0 min 0 min 0 W/m 3,2 km/h (1 Bft) 97,87 %
22.10.2022 02:40 13,3 C 12,2 C 10,0 C 98 % 1010,3 hPa 0,0 l/m 0 min 0 min 0 W/m 6,4 km/h (2 Bft) 100,00 %
22.10.2022 02:42 13,3 C 12,2 C 10,0 C 98 % 1010,3 hPa 0,0 l/m 0 min 0 min 0 W/m 0,0 km/h (0 Bft) 97,87 %
22.10.2022 02:44 13,3 C 12,2 C 10,0 C 98 % 1010,2 hPa 0,0 l/m 0 min 0 min 0 W/m 0,0 km/h (0 Bft) 70,21 %
22.10.2022 02:46 13,3 C 12,2 C 10,0 C 98 % 1010,3 hPa 0,0 l/m 0 min 0 min 0 W/m 0,0 km/h (0 Bft) 78,79 %
22.10.2022 02:48 13,3 C 12,2 C 10,0 C 98 % 1010,4 hPa 0,0 l/m 0 min 0 min 0 W/m 3,2 km/h (1 Bft) 95,74 %
22.10.2022 02:50 13,3 C 12,2 C 10,0 C 98 % 1010,3 hPa 0,0 l/m 0 min 0 min 0 W/m 3,2 km/h (1 Bft) 97,87 %
22.10.2022 02:52 13,3 C 12,2 C 10,0 C 98 % 1010,4 hPa 0,0 l/m 0 min 0 min 0 W/m 6,4 km/h (2 Bft) 95,74 %
22.10.2022 02:54 13,3 C 12,2 C 10,0 C 98 % 1010,4 hPa 0,0 l/m 0 min 0 min 0 W/m 6,4 km/h (2 Bft) 100,00 %
22.10.2022 02:56 13,3 C 12,2 C 10,0 C 98 % 1010,4 hPa 0,0 l/m 0 min 0 min 0 W/m 3,2 km/h (1 Bft) 97,83 %
22.10.2022 02:58 13,3 C 12,2 C 10,0 C 98 % 1010,4 hPa 0,0 l/m 0 min 0 min 0 W/m 0,0 km/h (0 Bft) 100,00 %
22.10.2022 03:00 13,3 C 12,2 C 10,0 C 98 % 1010,4 hPa 0,0 l/m 0 min 0 min 0 W/m 3,2 km/h (1 Bft) 97,87 %
22.10.2022 03:02 13,3 C 12,2 C 10,0 C 98 % 1010,4 hPa 0,0 l/m 0 min 0 min 0 W/m 6,4 km/h (2 Bft) 95,74 %
22.10.2022 03:04 13,3 C 12,2 C 10,0 C 98 % 1010,3 hPa 0,0 l/m 0 min 0 min 0 W/m 3,2 km/h (1 Bft) 95,74 %
22.10.2022 03:06 13,3 C 12,2 C 10,0 C 98 % 1010,3 hPa 0,0 l/m 0 min 0 min 0 W/m 3,2 km/h (1 Bft) 97,87 %
22.10.2022 03:08 13,3 C 12,2 C 10,0 C 98 % 1010,3 hPa 0,0 l/m 0 min 0 min 0 W/m 3,2 km/h (1 Bft) 97,83 %
22.10.2022 03:10 13,3 C 12,2 C 10,0 C 98 % 1010,3 hPa 0,0 l/m 0 min 0 min 0 W/m 6,4 km/h (2 Bft) 97,87 %
22.10.2022 03:12 13,3 C 12,2 C 10,0 C 98 % 1010,4 hPa 0,0 l/m 0 min 0 min 0 W/m 3,2 km/h (1 Bft) 100,00 %
22.10.2022 03:14 13,3 C 12,2 C 10,0 C 98 % 1010,4 hPa 0,0 l/m 0 min 0 min 0 W/m 0,0 km/h (0 Bft) 100,00 %
22.10.2022 03:16 13,3 C 12,2 C 10,0 C 98 % 1010,3 hPa 0,0 l/m 0 min 0 min 0 W/m 3,2 km/h (1 Bft) 97,87 %
22.10.2022 03:18 13,3 C 12,2 C 10,0 C 98 % 1010,3 hPa 0,0 l/m 0 min 0 min 0 W/m 3,2 km/h (1 Bft) 97,87 %
22.10.2022 03:20 13,3 C 12,2 C 10,0 C 98 % 1010,2 hPa 0,0 l/m 0 min 0 min 0 W/m 3,2 km/h (1 Bft) 97,83 %
22.10.2022 03:22 13,3 C 12,8 C 10,0 C 98 % 1010,3 hPa 0,0 l/m 0 min 0 min 0 W/m 6,4 km/h (2 Bft) 95,74 %
22.10.2022 03:24 13,3 C 12,2 C 10,0 C 98 % 1010,2 hPa 0,0 l/m 0 min 0 min 0 W/m 3,2 km/h (1 Bft) 97,87 %
22.10.2022 03:26 13,3 C 12,8 C 10,0 C 98 % 1010,2 hPa 0,0 l/m 0 min 0 min 0 W/m 9,7 km/h (2 Bft) 100,00 %
22.10.2022 03:28 13,4 C 12,8 C 10,0 C 98 % 1010,3 hPa 0,0 l/m 0 min 0 min 0 W/m 3,2 km/h (1 Bft) 97,87 %
22.10.2022 03:30 13,4 C 12,8 C 10,0 C 98 % 1010,2 hPa 0,0 l/m 0 min 0 min 0 W/m 3,2 km/h (1 Bft) 95,74 %
22.10.2022 03:32 13,4 C 12,8 C 10,0 C 98 % 1010,2 hPa 0,0 l/m 0 min 0 min 0 W/m 3,2 km/h (1 Bft) 97,83 %
22.10.2022 03:34 13,4 C 12,8 C 10,0 C 98 % 1010,2 hPa 0,0 l/m 0 min 0 min 0 W/m 3,2 km/h (1 Bft) 97,87 %
22.10.2022 03:36 13,4 C 12,8 C 10,0 C 98 % 1010,2 hPa 0,0 l/m 0 min 0 min 0 W/m 6,4 km/h (2 Bft) 97,87 %
22.10.2022 03:38 13,4 C 12,8 C 10,0 C 98 % 1010,1 hPa 0,0 l/m 0 min 0 min 0 W/m 6,4 km/h (2 Bft) 97,87 %
22.10.2022 03:40 13,4 C 12,8 C 10,0 C 98 % 1010,1 hPa 0,0 l/m 0 min 0 min 0 W/m 6,4 km/h (2 Bft) 97,87 %
22.10.2022 03:42 13,4 C 12,8 C 10,0 C 98 % 1010,1 hPa 0,0 l/m 0 min 0 min 0 W/m 3,2 km/h (1 Bft) 97,87 %
22.10.2022 03:44 13,4 C 12,8 C 10,0 C 98 % 1010,1 hPa 0,0 l/m 0 min 0 min 0 W/m 3,2 km/h (1 Bft) 96,30 %
22.10.2022 03:46 13,4 C 12,8 C 10,0 C 98 % 1010,2 hPa 0,0 l/m 0 min 0 min 0 W/m 6,4 km/h (2 Bft) 98,00 %
22.10.2022 03:48 13,4 C 12,8 C 10,0 C 98 % 1010,1 hPa 0,0 l/m 0 min 0 min 0 W/m 6,4 km/h (2 Bft) 97,14 %
22.10.2022 03:50 13,4 C 12,8 C 10,0 C 98 % 1010,0 hPa 0,0 l/m 0 min 0 min 0 W/m 3,2 km/h (1 Bft) 97,92 %
22.10.2022 03:52 13,4 C 12,8 C 10,0 C 98 % 1010,1 hPa 0,0 l/m 0 min 0 min 0 W/m 6,4 km/h (2 Bft) 95,74 %
22.10.2022 03:54 13,4 C 12,8 C 10,0 C 98 % 1010,2 hPa 0,0 l/m 0 min 0 min 0 W/m 3,2 km/h (1 Bft) 98,15 %
22.10.2022 03:56 13,5 C 12,8 C 10,0 C 98 % 1010,1 hPa 0,0 l/m 0 min 0 min 0 W/m 6,4 km/h (2 Bft) 97,96 %
22.10.2022 03:58 13,5 C 12,8 C 10,0 C 98 % 1010,1 hPa 0,0 l/m 0 min 0 min 0 W/m 3,2 km/h (1 Bft) 97,30 %
22.10.2022 04:00 13,5 C 12,8 C 10,0 C 98 % 1010,1 hPa 0,0 l/m 0 min 0 min 0 W/m 6,4 km/h (2 Bft) 97,87 %
22.10.2022 04:02 13,5 C 12,8 C 10,0 C 98 % 1010,1 hPa 0,0 l/m 0 min 0 min 0 W/m 3,2 km/h (1 Bft) 96,30 %
22.10.2022 04:04 13,5 C 12,8 C 10,0 C 98 % 1010,1 hPa 0,0 l/m 0 min 0 min 0 W/m 6,4 km/h (2 Bft) 98,00 %
22.10.2022 04:06 13,5 C 12,8 C 10,0 C 98 % 1010,1 hPa 0,0 l/m 0 min 0 min 0 W/m 6,4 km/h (2 Bft) 100,00 %
22.10.2022 04:08 13,5 C 12,8 C 10,0 C 98 % 1010,1 hPa 0,0 l/m 0 min 0 min 0 W/m 6,4 km/h (2 Bft) 100,00 %
22.10.2022 04:10 13,5 C 12,8 C 10,0 C 98 % 1010,1 hPa 0,0 l/m 0 min 0 min 0 W/m 6,4 km/h (2 Bft) 100,00 %
22.10.2022 04:12 13,5 C 12,8 C 10,0 C 98 % 1010,1 hPa 0,0 l/m 0 min 0 min 0 W/m 3,2 km/h (1 Bft) 97,87 %
22.10.2022 04:14 13,5 C 12,8 C 10,0 C 98 % 1010,2 hPa 0,0 l/m 0 min 0 min 0 W/m 6,4 km/h (2 Bft) 96,30 %
22.10.2022 04:16 13,5 C 12,8 C 10,0 C 98 % 1010,2 hPa 0,0 l/m 0 min 0 min 0 W/m 6,4 km/h (2 Bft) 96,00 %
22.10.2022 04:18 13,5 C 12,8 C 10,0 C 98 % 1010,1 hPa 0,0 l/m 0 min 0 min 0 W/m 3,2 km/h (1 Bft) 100,00 %
22.10.2022 04:20 13,5 C 12,8 C 10,0 C 98 % 1010,2 hPa 0,0 l/m 0 min 0 min 0 W/m 6,4 km/h (2 Bft) 97,83 %
22.10.2022 04:22 13,5 C 12,8 C 10,0 C 98 % 1010,2 hPa 0,0 l/m 0 min 0 min 0 W/m 6,4 km/h (2 Bft) 96,30 %
22.10.2022 04:24 13,5 C 12,8 C 10,0 C 98 % 1010,2 hPa 0,0 l/m 0 min 0 min 0 W/m 6,4 km/h (2 Bft) 100,00 %
22.10.2022 04:26 13,5 C 12,8 C 10,0 C 98 % 1010,2 hPa 0,0 l/m 0 min 0 min 0 W/m 3,2 km/h (1 Bft) 100,00 %
22.10.2022 04:28 13,5 C 12,8 C 10,6 C 98 % 1010,2 hPa 0,0 l/m 0 min 0 min 0 W/m 6,4 km/h (2 Bft) 97,87 %
22.10.2022 04:30 13,5 C 12,8 C 10,0 C 98 % 1010,2 hPa 0,0 l/m 0 min 0 min 0 W/m 3,2 km/h (1 Bft) 94,44 %
22.10.2022 04:32 13,5 C 12,8 C 10,0 C 98 % 1010,2 hPa 0,0 l/m 0 min 0 min 0 W/m 3,2 km/h (1 Bft) 95,92 %
22.10.2022 04:34 13,5 C 12,8 C 10,0 C 98 % 1010,2 hPa 0,0 l/m 0 min 0 min 0 W/m 6,4 km/h (2 Bft) 94,59 %
22.10.2022 04:36 13,4 C 12,8 C 10,0 C 98 % 1010,2 hPa 0,0 l/m 0 min 0 min 0 W/m 6,4 km/h (2 Bft) 95,74 %
22.10.2022 04:38 13,4 C 12,8 C 10,0 C 98 % 1010,2 hPa 0,0 l/m 0 min 0 min 0 W/m 3,2 km/h (1 Bft) 95,74 %
22.10.2022 04:40 13,4 C 12,2 C 10,0 C 98 % 1010,3 hPa 0,0 l/m 0 min 0 min 0 W/m 6,4 km/h (2 Bft) 96,30 %
22.10.2022 04:42 13,4 C 12,2 C 10,0 C 98 % 1010,3 hPa 0,0 l/m 0 min 0 min 0 W/m 3,2 km/h (1 Bft) 95,92 %
22.10.2022 04:44 13,4 C 12,2 C 10,0 C 98 % 1010,2 hPa 0,0 l/m 0 min 0 min 0 W/m 3,2 km/h (1 Bft) 94,59 %
22.10.2022 04:46 13,4 C 12,2 C 10,0 C 98 % 1010,2 hPa 0,0 l/m 0 min 0 min 0 W/m 3,2 km/h (1 Bft) 95,74 %
22.10.2022 04:48 13,4 C 12,2 C 10,0 C 99 % 1010,3 hPa 0,0 l/m 0 min 0 min 0 W/m 6,4 km/h (2 Bft) 96,30 %
22.10.2022 04:50 13,4 C 12,2 C 10,0 C 99 % 1010,3 hPa 0,0 l/m 0 min 0 min 0 W/m 6,4 km/h (2 Bft) 94,00 %
22.10.2022 04:52 13,3 C 12,2 C 10,0 C 99 % 1010,3 hPa 0,0 l/m 0 min 0 min 0 W/m 6,4 km/h (2 Bft) 94,59 %
22.10.2022 04:54 13,3 C 12,2 C 10,0 C 99 % 1010,3 hPa 0,0 l/m 0 min 0 min 0 W/m 6,4 km/h (2 Bft) 95,74 %
22.10.2022 04:56 13,3 C 12,2 C 10,0 C 99 % 1010,3 hPa 0,0 l/m 0 min 0 min 0 W/m 3,2 km/h (1 Bft) 94,34 %
22.10.2022 04:58 13,3 C 12,2 C 10,0 C 99 % 1010,2 hPa 0,0 l/m 0 min 0 min 0 W/m 0,0 km/h (0 Bft) 94,00 %
22.10.2022 05:00 13,3 C 12,2 C 10,0 C 99 % 1010,3 hPa 0,0 l/m 0 min 0 min 0 W/m 0,0 km/h (0 Bft) 100,00 %
22.10.2022 05:02 13,3 C 12,2 C 10,0 C 99 % 1010,3 hPa 0,0 l/m 0 min 0 min 0 W/m 6,4 km/h (2 Bft) 95,74 %
22.10.2022 05:04 13,3 C 12,2 C 10,0 C 99 % 1010,4 hPa 0,0 l/m 0 min 0 min 0 W/m 3,2 km/h (1 Bft) 96,30 %
22.10.2022 05:06 13,3 C 12,2 C 10,0 C 99 % 1010,4 hPa 0,0 l/m 0 min 0 min 0 W/m 3,2 km/h (1 Bft) 97,96 %
22.10.2022 05:08 13,2 C 12,2 C 10,0 C 99 % 1010,3 hPa 0,0 l/m 0 min 0 min 0 W/m 6,4 km/h (2 Bft) 100,00 %
22.10.2022 05:10 13,2 C 12,2 C 10,0 C 98 % 1010,3 hPa 0,0 l/m 0 min 0 min 0 W/m 3,2 km/h (1 Bft) 97,30 %
22.10.2022 05:12 13,2 C 12,2 C 10,0 C 98 % 1010,3 hPa 0,0 l/m 0 min 0 min 0 W/m 6,4 km/h (2 Bft) 97,87 %
22.10.2022 05:14 13,2 C 12,2 C 10,0 C 98 % 1010,3 hPa 0,0 l/m 0 min 0 min 0 W/m 6,4 km/h (2 Bft) 100,00 %
22.10.2022 05:16 13,2 C 12,2 C 10,0 C 98 % 1010,3 hPa 0,0 l/m 0 min 0 min 0 W/m 0,0 km/h (0 Bft) 98,00 %
22.10.2022 05:18 13,1 C 12,2 C 10,0 C 98 % 1010,3 hPa 0,2 l/m 0 min 0 min 0 W/m 0,0 km/h (0 Bft) 100,00 %
22.10.2022 05:20 13,1 C 12,2 C 10,0 C 98 % 1010,3 hPa 0,0 l/m 0 min 0 min 0 W/m 0,0 km/h (0 Bft) 100,00 %
22.10.2022 05:22 13,1 C 12,2 C 10,0 C 98 % 1010,3 hPa 0,0 l/m 0 min 0 min 0 W/m 0,0 km/h (0 Bft) 98,15 %
22.10.2022 05:24 13,1 C 12,2 C 10,0 C 98 % 1010,3 hPa 0,0 l/m 0 min 0 min 0 W/m 0,0 km/h (0 Bft) 100,00 %
22.10.2022 05:26 13,1 C 12,2 C 10,0 C 98 % 1010,4 hPa 0,0 l/m 0 min 0 min 0 W/m 0,0 km/h (0 Bft) 100,00 %
22.10.2022 05:28 13,1 C 12,2 C 10,0 C 98 % 1010,3 hPa 0,0 l/m 0 min 0 min 0 W/m 0,0 km/h (0 Bft) 100,00 %
22.10.2022 05:30 13,1 C 12,2 C 10,0 C 99 % 1010,4 hPa 0,0 l/m 0 min 0 min 0 W/m 0,0 km/h (0 Bft) 100,00 %
22.10.2022 05:32 13,1 C 12,2 C 10,0 C 99 % 1010,3 hPa 0,0 l/m 0 min 0 min 0 W/m 0,0 km/h (0 Bft) 100,00 %
22.10.2022 05:34 13,1 C 12,2 C 10,0 C 99 % 1010,4 hPa 0,0 l/m 0 min 0 min 0 W/m 0,0 km/h (0 Bft) 100,00 %
22.10.2022 05:36 13,1 C 12,2 C 10,0 C 99 % 1010,5 hPa 0,0 l/m 0 min 0 min 0 W/m 0,0 km/h (0 Bft) 100,00 %
22.10.2022 05:38 13,1 C 12,2 C 10,0 C 99 % 1010,4 hPa 0,0 l/m 0 min 0 min 0 W/m 0,0 km/h (0 Bft) 100,00 %
22.10.2022 05:40 13,1 C 12,2 C 10,0 C 99 % 1010,4 hPa 0,0 l/m 0 min 0 min 0 W/m 0,0 km/h (0 Bft) 100,00 %
22.10.2022 05:42 13,1 C 12,2 C 10,0 C 99 % 1010,4 hPa 0,0 l/m 0 min 0 min 0 W/m 0,0 km/h (0 Bft) 100,00 %
22.10.2022 05:44 13,1 C 12,2 C 10,0 C 99 % 1010,5 hPa 0,0 l/m 0 min 0 min 0 W/m 0,0 km/h (0 Bft) 100,00 %
22.10.2022 05:46 13,1 C 12,2 C 10,0 C 99 % 1010,5 hPa 0,0 l/m 0 min 0 min 0 W/m 0,0 km/h (0 Bft) 100,00 %
22.10.2022 05:48 13,1 C 12,2 C 10,0 C 99 % 1010,5 hPa 0,0 l/m 0 min 0 min 0 W/m 0,0 km/h (0 Bft) 100,00 %
22.10.2022 05:50 13,1 C 12,2 C 10,0 C 99 % 1010,5 hPa 0,0 l/m 0 min 0 min 0 W/m 0,0 km/h (0 Bft) 97,96 %
22.10.2022 05:52 13,1 C 12,2 C 10,0 C 99 % 1010,6 hPa 0,0 l/m 0 min 0 min 0 W/m 0,0 km/h (0 Bft) 100,00 %
22.10.2022 05:54 13,1 C 12,2 C 10,0 C 99 % 1010,5 hPa 0,0 l/m 0 min 0 min 0 W/m 0,0 km/h (0 Bft) 97,87 %
22.10.2022 05:56 13,1 C 12,2 C 10,0 C 99 % 1010,6 hPa 0,0 l/m 0 min 0 min 0 W/m 0,0 km/h (0 Bft) 100,00 %
22.10.2022 05:58 13,1 C 12,2 C 10,0 C 99 % 1010,6 hPa 0,0 l/m 0 min 0 min 0 W/m 0,0 km/h (0 Bft) 100,00 %
22.10.2022 06:00 13,1 C 12,2 C 10,0 C 99 % 1010,6 hPa 0,0 l/m 0 min 0 min 0 W/m 0,0 km/h (0 Bft) 95,92 %
22.10.2022 06:02 13,0 C 12,2 C 10,0 C 99 % 1010,6 hPa 0,0 l/m 0 min 0 min 0 W/m 3,2 km/h (1 Bft) 100,00 %
22.10.2022 06:04 13,0 C 12,2 C 10,0 C 99 % 1010,6 hPa 0,0 l/m 0 min 0 min 0 W/m 3,2 km/h (1 Bft) 100,00 %
22.10.2022 06:08 13,0 C 12,2 C 10,0 C 99 % 1010,6 hPa 0,0 l/m 0 min 0 min 0 W/m 0,0 km/h (0 Bft) 100,00 %
22.10.2022 06:10 13,0 C 12,2 C 10,0 C 99 % 1010,6 hPa 0,0 l/m 0 min 0 min 0 W/m 0,0 km/h (0 Bft) 100,00 %
22.10.2022 06:12 13,0 C 12,2 C 10,0 C 99 % 1010,7 hPa 0,0 l/m 0 min 0 min 0 W/m 0,0 km/h (0 Bft) 100,00 %
22.10.2022 06:14 12,9 C 11,7 C 10,0 C 99 % 1010,7 hPa 0,0 l/m 0 min 0 min 0 W/m 0,0 km/h (0 Bft) 94,74 %
22.10.2022 06:16 12,9 C 11,7 C 10,0 C 99 % 1010,8 hPa 0,0 l/m 0 min 0 min 0 W/m 3,2 km/h (1 Bft) 97,92 %
22.10.2022 06:18 12,9 C 11,7 C 9,4 C 99 % 1010,8 hPa 0,0 l/m 0 min 0 min 0 W/m 0,0 km/h (0 Bft) 97,87 %
22.10.2022 06:20 12,9 C 11,7 C 9,4 C 99 % 1010,7 hPa 0,0 l/m 0 min 0 min 0 W/m 3,2 km/h (1 Bft) 96,30 %
22.10.2022 06:22 12,9 C 11,7 C 9,4 C 99 % 1010,8 hPa 0,0 l/m 0 min 0 min 0 W/m 3,2 km/h (1 Bft) 97,37 %
22.10.2022 06:24 12,8 C 11,7 C 9,4 C 99 % 1010,8 hPa 0,0 l/m 0 min 0 min 0 W/m 0,0 km/h (0 Bft) 95,92 %
22.10.2022 06:26 12,8 C 11,7 C 9,4 C 99 % 1010,8 hPa 0,0 l/m 0 min 0 min 0 W/m 3,2 km/h (1 Bft) 89,36 %
22.10.2022 06:28 12,8 C 11,7 C 9,4 C 99 % 1010,9 hPa 0,0 l/m 0 min 0 min 0 W/m 3,2 km/h (1 Bft) 96,23 %
22.10.2022 06:30 12,8 C 11,7 C 9,4 C 99 % 1010,9 hPa 0,0 l/m 0 min 0 min 0 W/m 0,0 km/h (0 Bft) 94,74 %
22.10.2022 06:32 12,8 C 11,7 C 9,4 C 99 % 1011,0 hPa 0,0 l/m 0 min 0 min 0 W/m 0,0 km/h (0 Bft) 93,88 %
22.10.2022 06:34 12,8 C 11,7 C 9,4 C 99 % 1011,0 hPa 0,0 l/m 0 min 0 min 0 W/m 3,2 km/h (1 Bft) 95,74 %
22.10.2022 06:36 12,7 C 11,7 C 9,4 C 99 % 1010,9 hPa 0,0 l/m 0 min 0 min 0 W/m 0,0 km/h (0 Bft) 94,44 %
22.10.2022 06:38 12,7 C 11,7 C 9,4 C 99 % 1010,9 hPa 0,0 l/m 0 min 0 min 0 W/m 0,0 km/h (0 Bft) 95,74 %
22.10.2022 06:40 12,7 C 11,7 C 9,4 C 99 % 1011,0 hPa 0,0 l/m 0 min 0 min 0 W/m 3,2 km/h (1 Bft) 95,65 %
22.10.2022 06:42 12,7 C 11,7 C 9,4 C 99 % 1010,9 hPa 0,0 l/m 0 min 0 min 0 W/m 3,2 km/h (1 Bft) 94,74 %
22.10.2022 06:44 12,6 C 11,7 C 9,4 C 99 % 1011,0 hPa 0,0 l/m 0 min 0 min 0 W/m 3,2 km/h (1 Bft) 95,92 %
22.10.2022 06:46 12,6 C 11,7 C 9,4 C 99 % 1011,0 hPa 0,0 l/m 0 min 0 min 0 W/m 3,2 km/h (1 Bft) 97,87 %
22.10.2022 06:48 12,6 C 11,7 C 9,4 C 99 % 1011,0 hPa 0,0 l/m 0 min 0 min 0 W/m 3,2 km/h (1 Bft) 96,30 %
22.10.2022 06:50 12,6 C 11,7 C 9,4 C 99 % 1011,0 hPa 0,0 l/m 0 min 0 min 0 W/m 3,2 km/h (1 Bft) 94,74 %
22.10.2022 06:52 12,6 C 11,7 C 9,4 C 99 % 1010,9 hPa 0,0 l/m 0 min 0 min 0 W/m 3,2 km/h (1 Bft) 95,83 %
22.10.2022 06:54 12,6 C 11,7 C 9,4 C 99 % 1011,0 hPa 0,0 l/m 0 min 0 min 0 W/m 3,2 km/h (1 Bft) 97,87 %
22.10.2022 06:56 12,6 C 11,7 C 9,4 C 99 % 1011,0 hPa 0,0 l/m 0 min 0 min 0 W/m 3,2 km/h (1 Bft) 96,30 %
22.10.2022 06:58 12,6 C 11,7 C 9,4 C 99 % 1011,0 hPa 0,0 l/m 0 min 0 min 0 W/m 3,2 km/h (1 Bft) 94,74 %
22.10.2022 07:00 12,6 C 11,7 C 9,4 C 99 % 1011,0 hPa 0,0 l/m 0 min 0 min 0 W/m 3,2 km/h (1 Bft) 97,96 %
22.10.2022 07:02 12,5 C 11,7 C 9,4 C 99 % 1011,0 hPa 0,0 l/m 0 min 0 min 0 W/m 3,2 km/h (1 Bft) 97,83 %
22.10.2022 07:04 12,6 C 11,7 C 9,4 C 99 % 1011,1 hPa 0,0 l/m 0 min 0 min 0 W/m 3,2 km/h (1 Bft) 98,15 %
22.10.2022 07:06 12,6 C 11,7 C 9,4 C 99 % 1011,1 hPa 0,0 l/m 0 min 0 min 0 W/m 3,2 km/h (1 Bft) 98,00 %
22.10.2022 07:08 12,6 C 11,7 C 9,4 C 99 % 1011,1 hPa 0,0 l/m 0 min 0 min 0 W/m 3,2 km/h (1 Bft) 94,29 %
22.10.2022 07:10 12,6 C 11,7 C 9,4 C 99 % 1011,1 hPa 0,0 l/m 0 min 0 min 0 W/m 3,2 km/h (1 Bft) 97,96 %
22.10.2022 07:12 12,6 C 11,7 C 9,4 C 99 % 1011,2 hPa 0,0 l/m 0 min 0 min 0 W/m 3,2 km/h (1 Bft) 97,87 %
22.10.2022 07:14 12,6 C 11,7 C 9,4 C 99 % 1011,2 hPa 0,0 l/m 0 min 0 min 0 W/m 3,2 km/h (1 Bft) 94,44 %
22.10.2022 07:16 12,6 C 11,7 C 9,4 C 99 % 1011,2 hPa 0,0 l/m 0 min 0 min 0 W/m 3,2 km/h (1 Bft) 100,00 %
22.10.2022 07:18 12,6 C 11,7 C 9,4 C 99 % 1011,2 hPa 0,0 l/m 0 min 0 min 0 W/m 0,0 km/h (0 Bft) 95,83 %
22.10.2022 07:20 12,6 C 11,7 C 9,4 C 99 % 1011,1 hPa 0,0 l/m 0 min 0 min 0 W/m 3,2 km/h (1 Bft) 97,87 %
22.10.2022 07:22 12,6 C 11,7 C 9,4 C 99 % 1011,1 hPa 0,0 l/m 0 min 0 min 0 W/m 3,2 km/h (1 Bft) 96,30 %
22.10.2022 07:24 12,6 C 11,7 C 9,4 C 99 % 1011,2 hPa 0,0 l/m 0 min 0 min 0 W/m 3,2 km/h (1 Bft) 97,37 %
22.10.2022 07:26 12,6 C 11,7 C 9,4 C 99 % 1011,2 hPa 0,0 l/m 0 min 0 min 0 W/m 3,2 km/h (1 Bft) 95,83 %
22.10.2022 07:28 12,6 C 11,7 C 9,4 C 99 % 1011,2 hPa 0,0 l/m 0 min 0 min 0 W/m 3,2 km/h (1 Bft) 97,87 %
22.10.2022 07:30 12,5 C 11,7 C 9,4 C 99 % 1011,2 hPa 0,0 l/m 0 min 0 min 0 W/m 0,0 km/h (0 Bft) 98,15 %
22.10.2022 07:32 12,5 C 11,7 C 9,4 C 99 % 1011,3 hPa 0,0 l/m 0 min 0 min 0 W/m 3,2 km/h (1 Bft) 97,37 %
22.10.2022 07:34 12,5 C 11,7 C 9,4 C 99 % 1011,3 hPa 0,0 l/m 0 min 0 min 0 W/m 3,2 km/h (1 Bft) 95,92 %
22.10.2022 07:36 12,5 C 11,7 C 9,4 C 99 % 1011,3 hPa 0,0 l/m 0 min 0 min 0 W/m 3,2 km/h (1 Bft) 97,87 %
22.10.2022 07:38 12,5 C 11,7 C 9,4 C 99 % 1011,3 hPa 0,0 l/m 0 min 0 min 0 W/m 3,2 km/h (1 Bft) 95,65 %
22.10.2022 07:40 12,5 C 11,7 C 9,4 C 99 % 1011,3 hPa 0,0 l/m 0 min 0 min 0 W/m 3,2 km/h (1 Bft) 98,15 %
22.10.2022 07:42 12,5 C 11,7 C 9,4 C 99 % 1011,4 hPa 0,0 l/m 0 min 0 min 0 W/m 0,0 km/h (0 Bft) 97,37 %
22.10.2022 07:44 12,4 C 11,7 C 9,4 C 99 % 1011,4 hPa 0,0 l/m 0 min 0 min 0 W/m 3,2 km/h (1 Bft) 97,96 %
22.10.2022 07:46 12,4 C 11,7 C 9,4 C 99 % 1011,4 hPa 0,0 l/m 0 min 0 min 0 W/m 3,2 km/h (1 Bft) 97,87 %
22.10.2022 07:48 12,4 C 11,7 C 9,4 C 99 % 1011,4 hPa 0,0 l/m 0 min 0 min 0 W/m 0,0 km/h (0 Bft) 96,30 %
22.10.2022 07:50 12,4 C 11,7 C 9,4 C 99 % 1011,4 hPa 0,0 l/m 0 min 0 min 0 W/m 3,2 km/h (1 Bft) 97,37 %
22.10.2022 07:52 12,4 C 11,7 C 9,4 C 99 % 1011,4 hPa 0,0 l/m 0 min 0 min 0 W/m 0,0 km/h (0 Bft) 100,00 %
22.10.2022 07:54 12,4 C 11,7 C 9,4 C 99 % 1011,4 hPa 0,0 l/m 0 min 0 min 0 W/m 3,2 km/h (1 Bft) 97,87 %
22.10.2022 07:56 12,4 C 11,7 C 9,4 C 99 % 1011,4 hPa 0,0 l/m 0 min 0 min 0 W/m 3,2 km/h (1 Bft) 100,00 %
22.10.2022 07:58 12,4 C 11,7 C 9,4 C 99 % 1011,4 hPa 0,0 l/m 0 min 0 min 0 W/m 3,2 km/h (1 Bft) 98,00 %
22.10.2022 08:00 12,4 C 11,7 C 9,4 C 99 % 1011,4 hPa 0,0 l/m 0 min 0 min 0 W/m 3,2 km/h (1 Bft) 100,00 %
22.10.2022 08:02 12,4 C 11,7 C 9,4 C 99 % 1011,4 hPa 0,0 l/m 0 min 0 min 0 W/m 6,4 km/h (2 Bft) 98,08 %
22.10.2022 08:04 12,4 C 11,7 C 9,4 C 99 % 1011,5 hPa 0,0 l/m 0 min 0 min 0 W/m 6,4 km/h (2 Bft) 100,00 %
22.10.2022 08:06 12,4 C 11,7 C 9,4 C 99 % 1011,5 hPa 0,0 l/m 0 min 0 min 0 W/m 3,2 km/h (1 Bft) 98,00 %
22.10.2022 08:08 12,4 C 11,7 C 9,4 C 99 % 1011,5 hPa 0,0 l/m 0 min 0 min 0 W/m 3,2 km/h (1 Bft) 100,00 %
22.10.2022 08:10 12,4 C 11,7 C 9,4 C 99 % 1011,5 hPa 0,0 l/m 0 min 0 min 0 W/m 3,2 km/h (1 Bft) 100,00 %
22.10.2022 08:12 12,4 C 11,7 C 9,4 C 99 % 1011,5 hPa 0,0 l/m 0 min 0 min 0 W/m 6,4 km/h (2 Bft) 100,00 %
22.10.2022 08:14 12,3 C 11,7 C 9,4 C 99 % 1011,5 hPa 0,0 l/m 0 min 0 min 3 W/m 6,4 km/h (2 Bft) 100,00 %
22.10.2022 08:16 12,4 C 11,7 C 9,4 C 99 % 1011,6 hPa 0,0 l/m 0 min 0 min 5 W/m 3,2 km/h (1 Bft) 97,96 %
22.10.2022 08:18 12,3 C 11,7 C 9,4 C 99 % 1011,7 hPa 0,0 l/m 0 min 0 min 6 W/m 0,0 km/h (0 Bft) 97,87 %
22.10.2022 08:20 12,3 C 11,7 C 9,4 C 99 % 1011,7 hPa 0,0 l/m 0 min 0 min 7 W/m 3,2 km/h (1 Bft) 98,11 %
22.10.2022 08:22 12,3 C 11,7 C 9,4 C 99 % 1011,7 hPa 0,0 l/m 0 min 0 min 8 W/m 3,2 km/h (1 Bft) 97,37 %
22.10.2022 08:24 12,3 C 11,7 C 9,4 C 99 % 1011,8 hPa 0,0 l/m 0 min 0 min 9 W/m 3,2 km/h (1 Bft) 96,00 %
22.10.2022 08:26 12,3 C 11,7 C 9,4 C 99 % 1011,8 hPa 0,0 l/m 0 min 0 min 11 W/m 3,2 km/h (1 Bft) 97,83 %
22.10.2022 08:28 12,3 C 11,7 C 9,4 C 99 % 1011,9 hPa 0,0 l/m 0 min 0 min 12 W/m 3,2 km/h (1 Bft) 97,87 %
22.10.2022 08:30 12,3 C 11,7 C 9,4 C 99 % 1011,9 hPa 0,0 l/m 0 min 0 min 13 W/m 3,2 km/h (1 Bft) 98,11 %
22.10.2022 08:32 12,3 C 11,7 C 9,4 C 99 % 1011,9 hPa 0,0 l/m 0 min 0 min 16 W/m 3,2 km/h (1 Bft) 97,37 %
22.10.2022 08:34 12,3 C 11,7 C 9,4 C 99 % 1011,9 hPa 0,0 l/m 0 min 0 min 18 W/m 3,2 km/h (1 Bft) 98,00 %
22.10.2022 08:36 12,3 C 11,7 C 9,4 C 99 % 1012,0 hPa 0,0 l/m 0 min 0 min 20 W/m 3,2 km/h (1 Bft) 97,83 %
22.10.2022 08:38 12,3 C 11,7 C 9,4 C 99 % 1012,0 hPa 0,0 l/m 0 min 0 min 24 W/m 3,2 km/h (1 Bft) 97,87 %
22.10.2022 08:40 12,3 C 11,7 C 9,4 C 99 % 1012,0 hPa 0,0 l/m 0 min 0 min 28 W/m 3,2 km/h (1 Bft) 96,23 %
22.10.2022 08:42 12,3 C 12,2 C 10,0 C 99 % 1012,1 hPa 0,0 l/m 0 min 0 min 30 W/m 3,2 km/h (1 Bft) 100,00 %
22.10.2022 08:44 12,3 C 12,2 C 10,0 C 99 % 1012,1 hPa 0,0 l/m 0 min 0 min 30 W/m 0,0 km/h (0 Bft) 97,87 %
22.10.2022 08:46 12,3 C 12,2 C 10,0 C 99 % 1012,2 hPa 0,0 l/m 0 min 0 min 28 W/m 0,0 km/h (0 Bft) 96,00 %
22.10.2022 08:48 12,4 C 12,2 C 10,0 C 99 % 1012,2 hPa 0,0 l/m 0 min 0 min 30 W/m 3,2 km/h (1 Bft) 100,00 %
22.10.2022 08:50 12,4 C 12,2 C 10,0 C 99 % 1012,2 hPa 0,0 l/m 0 min 0 min 30 W/m 0,0 km/h (0 Bft) 100,00 %
22.10.2022 08:52 12,4 C 12,2 C 10,0 C 99 % 1012,2 hPa 0,0 l/m 0 min 0 min 32 W/m 3,2 km/h (1 Bft) 100,00 %
22.10.2022 08:54 12,4 C 12,2 C 10,0 C 99 % 1012,3 hPa 0,0 l/m 0 min 0 min 32 W/m 0,0 km/h (0 Bft) 100,00 %
22.10.2022 08:56 12,4 C 12,2 C 10,0 C 99 % 1012,3 hPa 0,0 l/m 0 min 0 min 31 W/m 0,0 km/h (0 Bft) 100,00 %
22.10.2022 08:58 12,4 C 12,2 C 10,0 C 99 % 1012,4 hPa 0,0 l/m 0 min 0 min 29 W/m 0,0 km/h (0 Bft) 100,00 %
22.10.2022 09:00 12,5 C 12,2 C 10,0 C 99 % 1012,4 hPa 0,0 l/m 0 min 0 min 26 W/m 0,0 km/h (0 Bft) 100,00 %
22.10.2022 09:02 12,5 C 12,8 C 10,0 C 99 % 1012,3 hPa 0,0 l/m 0 min 0 min 25 W/m 0,0 km/h (0 Bft) 100,00 %
22.10.2022 09:04 12,6 C 12,8 C 10,0 C 99 % 1012,4 hPa 0,0 l/m 0 min 0 min 25 W/m 0,0 km/h (0 Bft) 100,00 %
22.10.2022 09:06 12,6 C 12,8 C 10,6 C 99 % 1012,3 hPa 0,0 l/m 0 min 0 min 27 W/m 0,0 km/h (0 Bft) 100,00 %
22.10.2022 09:08 12,6 C 12,8 C 10,6 C 99 % 1012,4 hPa 0,0 l/m 0 min 0 min 32 W/m 0,0 km/h (0 Bft) 100,00 %
22.10.2022 09:10 12,7 C 12,8 C 10,6 C 99 % 1012,4 hPa 0,0 l/m 0 min 0 min 33 W/m 0,0 km/h (0 Bft) 100,00 %
22.10.2022 09:12 12,7 C 12,8 C 10,6 C 99 % 1012,4 hPa 0,0 l/m 0 min 0 min 31 W/m 3,2 km/h (1 Bft) 100,00 %
22.10.2022 09:14 12,7 C 12,8 C 10,6 C 99 % 1012,5 hPa 0,0 l/m 0 min 0 min 29 W/m 3,2 km/h (1 Bft) 97,87 %
22.10.2022 09:16 12,8 C 12,8 C 10,6 C 99 % 1012,5 hPa 0,0 l/m 0 min 0 min 30 W/m 3,2 km/h (1 Bft) 94,44 %
22.10.2022 09:18 12,8 C 12,8 C 10,6 C 99 % 1012,5 hPa 0,0 l/m 0 min 0 min 28 W/m 3,2 km/h (1 Bft) 97,37 %
22.10.2022 09:20 12,8 C 12,8 C 10,6 C 99 % 1012,6 hPa 0,0 l/m 0 min 0 min 27 W/m 6,4 km/h (2 Bft) 97,96 %
22.10.2022 09:22 12,8 C 12,8 C 10,6 C 99 % 1012,7 hPa 0,0 l/m 0 min 0 min 28 W/m 3,2 km/h (1 Bft) 95,74 %
22.10.2022 09:24 12,8 C 12,8 C 10,6 C 99 % 1012,7 hPa 0,0 l/m 0 min 0 min 29 W/m 3,2 km/h (1 Bft) 97,83 %
22.10.2022 09:26 12,9 C 12,8 C 10,6 C 99 % 1012,7 hPa 0,0 l/m 0 min 0 min 33 W/m 6,4 km/h (2 Bft) 98,15 %
22.10.2022 09:28 12,9 C 12,8 C 10,6 C 99 % 1012,7 hPa 0,0 l/m 0 min 0 min 38 W/m 0,0 km/h (0 Bft) 97,37 %
22.10.2022 09:30 12,9 C 13,3 C 10,6 C 99 % 1012,8 hPa 0,0 l/m 0 min 0 min 41 W/m 3,2 km/h (1 Bft) 97,96 %
22.10.2022 09:32 12,9 C 13,3 C 10,6 C 99 % 1012,8 hPa 0,0 l/m 0 min 0 min 41 W/m 3,2 km/h (1 Bft) 95,74 %
22.10.2022 09:34 12,9 C 13,3 C 10,6 C 99 % 1012,9 hPa 0,0 l/m 0 min 0 min 40 W/m 0,0 km/h (0 Bft) 95,65 %
22.10.2022 09:36 13,0 C 13,3 C 10,6 C 99 % 1012,8 hPa 0,0 l/m 0 min 0 min 39 W/m 3,2 km/h (1 Bft) 97,87 %
22.10.2022 09:38 13,0 C 13,3 C 10,6 C 100 % 1012,9 hPa 0,0 l/m 0 min 0 min 44 W/m 6,4 km/h (2 Bft) 95,74 %
22.10.2022 09:40 13,0 C 13,3 C 11,1 C 100 % 1012,9 hPa 0,0 l/m 0 min 0 min 50 W/m 3,2 km/h (1 Bft) 97,87 %
22.10.2022 09:42 13,1 C 13,3 C 11,1 C 100 % 1012,9 hPa 0,0 l/m 0 min 0 min 50 W/m 3,2 km/h (1 Bft) 97,87 %
22.10.2022 09:44 13,1 C 13,3 C 11,1 C 100 % 1012,9 hPa 0,0 l/m 0 min 0 min 48 W/m 3,2 km/h (1 Bft) 95,74 %
22.10.2022 09:46 13,1 C 13,3 C 11,1 C 100 % 1013,0 hPa 0,0 l/m 0 min 0 min 61 W/m 3,2 km/h (1 Bft) 97,83 %
22.10.2022 09:48 13,1 C 13,9 C 11,1 C 100 % 1012,9 hPa 0,0 l/m 0 min 0 min 85 W/m 0,0 km/h (0 Bft) 97,87 %
22.10.2022 09:50 13,1 C 13,9 C 11,1 C 100 % 1012,9 hPa 0,0 l/m 0 min 0 min 87 W/m 3,2 km/h (1 Bft) 93,62 %
22.10.2022 09:52 13,2 C 13,9 C 11,1 C 100 % 1013,0 hPa 0,0 l/m 0 min 0 min 71 W/m 3,2 km/h (1 Bft) 93,62 %
22.10.2022 09:54 13,2 C 13,9 C 11,1 C 99 % 1013,0 hPa 0,0 l/m 0 min 0 min 67 W/m 3,2 km/h (1 Bft) 95,74 %
22.10.2022 09:56 13,3 C 13,9 C 11,1 C 99 % 1013,0 hPa 0,0 l/m 0 min 0 min 68 W/m 3,2 km/h (1 Bft) 95,74 %
22.10.2022 09:58 13,3 C 13,9 C 11,1 C 99 % 1013,0 hPa 0,0 l/m 0 min 0 min 81 W/m 6,4 km/h (2 Bft) 95,74 %
22.10.2022 10:00 13,3 C 13,9 C 11,1 C 99 % 1013,1 hPa 0,0 l/m 0 min 0 min 80 W/m 3,2 km/h (1 Bft) 93,48 %
22.10.2022 10:02 13,4 C 13,9 C 11,1 C 99 % 1013,1 hPa 0,0 l/m 0 min 0 min 77 W/m 6,4 km/h (2 Bft) 97,87 %
22.10.2022 10:04 13,4 C 13,9 C 11,1 C 100 % 1013,2 hPa 0,0 l/m 0 min 0 min 71 W/m 12,9 km/h (3 Bft) 91,49 %
22.10.2022 10:06 13,5 C 13,9 C 11,7 C 100 % 1013,2 hPa 0,0 l/m 0 min 0 min 61 W/m 9,7 km/h (2 Bft) 97,87 %
22.10.2022 10:08 13,5 C 13,9 C 11,7 C 100 % 1013,2 hPa 0,0 l/m 0 min 0 min 53 W/m 9,7 km/h (2 Bft) 95,74 %
22.10.2022 10:10 13,6 C 13,9 C 11,7 C 100 % 1013,3 hPa 0,0 l/m 0 min 0 min 48 W/m 12,9 km/h (3 Bft) 97,83 %
22.10.2022 10:12 13,6 C 13,9 C 11,7 C 99 % 1013,4 hPa 0,0 l/m 0 min 0 min 49 W/m 6,4 km/h (2 Bft) 93,62 %
22.10.2022 10:14 13,6 C 13,9 C 11,7 C 99 % 1013,4 hPa 0,0 l/m 0 min 0 min 55 W/m 16,1 km/h (3 Bft) 95,74 %
22.10.2022 10:16 13,7 C 13,9 C 11,7 C 99 % 1013,4 hPa 0,0 l/m 0 min 0 min 62 W/m 12,9 km/h (3 Bft) 95,74 %
22.10.2022 10:18 13,7 C 13,9 C 11,7 C 99 % 1013,4 hPa 0,0 l/m 0 min 0 min 63 W/m 9,7 km/h (2 Bft) 93,62 %
22.10.2022 10:20 13,7 C 14,4 C 11,7 C 99 % 1013,4 hPa 0,0 l/m 0 min 0 min 64 W/m 9,7 km/h (2 Bft) 95,74 %
22.10.2022 10:22 13,7 C 14,4 C 11,7 C 99 % 1013,5 hPa 0,0 l/m 0 min 0 min 70 W/m 9,7 km/h (2 Bft) 93,62 %
22.10.2022 10:24 13,8 C 14,4 C 11,7 C 99 % 1013,5 hPa 0,0 l/m 0 min 0 min 77 W/m 6,4 km/h (2 Bft) 95,65 %
22.10.2022 10:26 13,8 C 14,4 C 11,7 C 99 % 1013,5 hPa 0,0 l/m 0 min 0 min 79 W/m 12,9 km/h (3 Bft) 95,74 %
22.10.2022 10:28 13,8 C 14,4 C 11,7 C 99 % 1013,5 hPa 0,0 l/m 0 min 0 min 77 W/m 6,4 km/h (2 Bft) 95,74 %
22.10.2022 10:30 13,8 C 14,4 C 11,7 C 99 % 1013,6 hPa 0,0 l/m 0 min 0 min 79 W/m 9,7 km/h (2 Bft) 95,74 %
22.10.2022 10:32 13,9 C 14,4 C 11,7 C 99 % 1013,5 hPa 0,0 l/m 0 min 0 min 83 W/m 6,4 km/h (2 Bft) 95,74 %
22.10.2022 10:34 13,9 C 14,4 C 11,7 C 99 % 1013,5 hPa 0,0 l/m 0 min 0 min 85 W/m 9,7 km/h (2 Bft) 95,74 %
22.10.2022 10:36 14,0 C 14,4 C 11,7 C 99 % 1013,5 hPa 0,0 l/m 0 min 0 min 93 W/m 6,4 km/h (2 Bft) 97,83 %
22.10.2022 10:38 14,0 C 14,4 C 11,7 C 99 % 1013,6 hPa 0,0 l/m 0 min 0 min 102 W/m 6,4 km/h (2 Bft) 95,74 %
22.10.2022 10:40 14,1 C 15,0 C 11,7 C 99 % 1013,6 hPa 0,0 l/m 0 min 0 min 119 W/m 9,7 km/h (2 Bft) 97,87 %
22.10.2022 10:42 14,1 C 15,0 C 12,2 C 99 % 1013,6 hPa 0,0 l/m 0 min 0 min 123 W/m 12,9 km/h (3 Bft) 97,87 %
22.10.2022 10:44 14,2 C 15,0 C 12,2 C 99 % 1013,6 hPa 0,0 l/m 0 min 0 min 117 W/m 6,4 km/h (2 Bft) 100,00 %
22.10.2022 10:46 14,3 C 15,0 C 12,2 C 99 % 1013,6 hPa 0,0 l/m 0 min 0 min 110 W/m 16,1 km/h (3 Bft) 100,00 %
22.10.2022 10:48 14,3 C 15,0 C 12,2 C 99 % 1013,7 hPa 0,0 l/m 0 min 0 min 115 W/m 6,4 km/h (2 Bft) 100,00 %
22.10.2022 10:50 14,3 C 15,0 C 12,2 C 98 % 1013,7 hPa 0,0 l/m 0 min 0 min 116 W/m 3,2 km/h (1 Bft) 100,00 %
22.10.2022 10:52 14,3 C 15,6 C 12,2 C 99 % 1013,7 hPa 0,0 l/m 0 min 0 min 115 W/m 6,4 km/h (2 Bft) 100,00 %
22.10.2022 10:54 14,4 C 15,6 C 12,2 C 99 % 1013,8 hPa 0,0 l/m 0 min 0 min 127 W/m 16,1 km/h (3 Bft) 97,87 %
22.10.2022 10:56 14,5 C 15,6 C 12,2 C 98 % 1013,7 hPa 0,0 l/m 0 min 0 min 147 W/m 12,9 km/h (3 Bft) 97,87 %
22.10.2022 10:58 14,6 C 15,6 C 12,8 C 98 % 1013,8 hPa 0,0 l/m 0 min 0 min 157 W/m 12,9 km/h (3 Bft) 100,00 %
22.10.2022 11:00 14,7 C 15,6 C 12,8 C 98 % 1013,8 hPa 0,0 l/m 0 min 0 min 130 W/m 6,4 km/h (2 Bft) 100,00 %
22.10.2022 11:02 14,7 C 15,6 C 12,8 C 98 % 1013,8 hPa 0,0 l/m 0 min 0 min 108 W/m 19,3 km/h (3 Bft) 100,00 %
22.10.2022 11:04 14,8 C 15,6 C 12,8 C 98 % 1013,9 hPa 0,0 l/m 0 min 0 min 102 W/m 16,1 km/h (3 Bft) 100,00 %
22.10.2022 11:06 14,8 C 15,6 C 12,8 C 97 % 1013,9 hPa 0,0 l/m 0 min 0 min 104 W/m 9,7 km/h (2 Bft) 100,00 %
22.10.2022 11:08 14,9 C 15,6 C 12,8 C 97 % 1013,9 hPa 0,0 l/m 0 min 0 min 103 W/m 16,1 km/h (3 Bft) 100,00 %
22.10.2022 11:10 14,9 C 15,6 C 12,8 C 97 % 1014,0 hPa 0,0 l/m 0 min 0 min 102 W/m 6,4 km/h (2 Bft) 100,00 %
22.10.2022 11:12 15,0 C 15,6 C 12,8 C 97 % 1013,9 hPa 0,0 l/m 0 min 0 min 105 W/m 12,9 km/h (3 Bft) 100,00 %
22.10.2022 11:14 15,1 C 15,6 C 12,8 C 96 % 1013,9 hPa 0,0 l/m 0 min 0 min 108 W/m 6,4 km/h (2 Bft) 100,00 %
22.10.2022 11:16 15,1 C 15,6 C 12,8 C 96 % 1014,0 hPa 0,0 l/m 0 min 0 min 110 W/m 19,3 km/h (3 Bft) 100,00 %
22.10.2022 11:18 15,1 C 15,6 C 12,8 C 96 % 1014,0 hPa 0,0 l/m 0 min 0 min 107 W/m 12,9 km/h (3 Bft) 100,00 %
22.10.2022 11:20 15,2 C 15,6 C 12,8 C 96 % 1014,0 hPa 0,0 l/m 0 min 0 min 112 W/m 9,7 km/h (2 Bft) 100,00 %
22.10.2022 11:22 15,2 C 15,6 C 12,8 C 95 % 1014,0 hPa 0,0 l/m 0 min 0 min 114 W/m 12,9 km/h (3 Bft) 100,00 %
22.10.2022 11:24 15,3 C 15,6 C 12,8 C 95 % 1014,0 hPa 0,0 l/m 0 min 0 min 113 W/m 16,1 km/h (3 Bft) 100,00 %
22.10.2022 11:26 15,3 C 15,6 C 12,8 C 95 % 1014,1 hPa 0,0 l/m 0 min 0 min 119 W/m 16,1 km/h (3 Bft) 100,00 %
22.10.2022 11:28 15,3 C 15,6 C 12,8 C 94 % 1014,0 hPa 0,0 l/m 0 min 0 min 140 W/m 25,7 km/h (4 Bft) 100,00 %
22.10.2022 11:30 15,4 C 15,6 C 12,8 C 94 % 1014,1 hPa 0,0 l/m 0 min 0 min 157 W/m 19,3 km/h (3 Bft) 100,00 %
22.10.2022 11:32 15,5 C 15,6 C 12,8 C 93 % 1014,0 hPa 0,0 l/m 0 min 0 min 163 W/m 19,3 km/h (3 Bft) 97,87 %
22.10.2022 11:34 15,6 C 16,1 C 12,8 C 93 % 1014,0 hPa 0,0 l/m 0 min 0 min 167 W/m 19,3 km/h (3 Bft) 100,00 %
22.10.2022 11:36 15,6 C 16,1 C 12,8 C 92 % 1014,0 hPa 0,0 l/m 0 min 0 min 168 W/m 16,1 km/h (3 Bft) 97,87 %
22.10.2022 11:38 15,7 C 16,1 C 12,8 C 92 % 1014,0 hPa 0,0 l/m 0 min 0 min 160 W/m 19,3 km/h (3 Bft) 100,00 %
22.10.2022 11:40 15,7 C 16,1 C 13,3 C 92 % 1014,1 hPa 0,0 l/m 0 min 0 min 162 W/m 19,3 km/h (3 Bft) 100,00 %
22.10.2022 11:42 15,8 C 16,1 C 13,3 C 91 % 1014,1 hPa 0,0 l/m 0 min 0 min 163 W/m 16,1 km/h (3 Bft) 100,00 %
22.10.2022 11:44 15,8 C 16,1 C 13,3 C 91 % 1014,1 hPa 0,0 l/m 0 min 0 min 172 W/m 22,5 km/h (4 Bft) 100,00 %
22.10.2022 11:46 15,9 C 16,1 C 13,3 C 90 % 1014,1 hPa 0,0 l/m 0 min 0 min 184 W/m 25,7 km/h (4 Bft) 97,83 %
22.10.2022 11:48 16,0 C 16,1 C 13,3 C 90 % 1014,1 hPa 0,0 l/m 0 min 0 min 180 W/m 25,7 km/h (4 Bft) 100,00 %
22.10.2022 11:50 16,0 C 16,1 C 13,3 C 90 % 1014,2 hPa 0,0 l/m 0 min 0 min 160 W/m 12,9 km/h (3 Bft) 100,00 %
22.10.2022 11:52 16,1 C 16,1 C 13,3 C 89 % 1014,2 hPa 0,0 l/m 0 min 0 min 158 W/m 12,9 km/h (3 Bft) 97,87 %
22.10.2022 11:54 16,1 C 16,1 C 13,3 C 89 % 1014,3 hPa 0,0 l/m 0 min 0 min 166 W/m 12,9 km/h (3 Bft) 100,00 %
22.10.2022 11:56 16,2 C 16,1 C 13,3 C 89 % 1014,2 hPa 0,0 l/m 0 min 0 min 176 W/m 22,5 km/h (4 Bft) 100,00 %
22.10.2022 11:58 16,2 C 16,7 C 13,3 C 89 % 1014,3 hPa 0,0 l/m 0 min 0 min 173 W/m 12,9 km/h (3 Bft) 100,00 %
22.10.2022 12:00 16,2 C 16,7 C 13,3 C 89 % 1014,3 hPa 0,0 l/m 0 min 0 min 175 W/m 9,7 km/h (2 Bft) 100,00 %
22.10.2022 12:02 16,3 C 16,7 C 13,3 C 88 % 1014,3 hPa 0,0 l/m 0 min 0 min 175 W/m 19,3 km/h (3 Bft) 97,87 %
22.10.2022 12:04 16,3 C 16,7 C 13,3 C 88 % 1014,4 hPa 0,0 l/m 0 min 0 min 167 W/m 29,0 km/h (5 Bft) 97,87 %
22.10.2022 12:08 16,4 C 16,7 C 13,3 C 87 % 1014,4 hPa 0,0 l/m 0 min 0 min 164 W/m 35,4 km/h (5 Bft) 95,74 %
22.10.2022 12:10 16,4 C 16,7 C 13,3 C 87 % 1014,4 hPa 0,0 l/m 0 min 0 min 175 W/m 16,1 km/h (3 Bft) 93,48 %
22.10.2022 12:12 16,5 C 16,7 C 13,3 C 87 % 1014,5 hPa 0,0 l/m 0 min 0 min 183 W/m 9,7 km/h (2 Bft) 93,62 %
22.10.2022 12:14 16,5 C 16,7 C 13,3 C 87 % 1014,5 hPa 0,0 l/m 0 min 0 min 191 W/m 19,3 km/h (3 Bft) 96,23 %
22.10.2022 12:16 16,6 C 16,7 C 13,3 C 87 % 1014,4 hPa 0,0 l/m 0 min 0 min 183 W/m 19,3 km/h (3 Bft) 95,74 %
22.10.2022 12:18 16,6 C 16,7 C 13,3 C 87 % 1014,5 hPa 0,0 l/m 0 min 0 min 183 W/m 22,5 km/h (4 Bft) 93,62 %
22.10.2022 12:20 16,6 C 16,7 C 13,3 C 86 % 1014,5 hPa 0,0 l/m 0 min 0 min 181 W/m 12,9 km/h (3 Bft) 93,48 %
22.10.2022 12:22 16,6 C 16,7 C 13,3 C 86 % 1014,6 hPa 0,0 l/m 0 min 0 min 182 W/m 29,0 km/h (5 Bft) 93,62 %
22.10.2022 12:24 16,6 C 16,7 C 13,3 C 85 % 1014,5 hPa 0,0 l/m 0 min 0 min 185 W/m 22,5 km/h (4 Bft) 93,62 %
22.10.2022 12:26 16,7 C 16,7 C 13,3 C 85 % 1014,6 hPa 0,0 l/m 0 min 0 min 181 W/m 19,3 km/h (3 Bft) 95,74 %
22.10.2022 12:28 16,7 C 16,7 C 13,3 C 85 % 1014,6 hPa 0,0 l/m 0 min 0 min 171 W/m 25,7 km/h (4 Bft) 95,74 %
22.10.2022 12:30 16,7 C 16,7 C 13,3 C 85 % 1014,6 hPa 0,0 l/m 0 min 0 min 176 W/m 29,0 km/h (5 Bft) 93,62 %
22.10.2022 12:32 16,7 C 16,7 C 13,3 C 85 % 1014,7 hPa 0,0 l/m 0 min 0 min 179 W/m 19,3 km/h (3 Bft) 95,65 %
22.10.2022 12:34 16,7 C 16,7 C 13,3 C 85 % 1014,7 hPa 0,0 l/m 0 min 0 min 171 W/m 25,7 km/h (4 Bft) 93,62 %
22.10.2022 12:36 16,7 C 16,7 C 13,3 C 84 % 1014,7 hPa 0,0 l/m 0 min 0 min 168 W/m 22,5 km/h (4 Bft) 95,74 %
22.10.2022 12:38 16,8 C 16,7 C 13,3 C 84 % 1014,8 hPa 0,0 l/m 0 min 0 min 163 W/m 22,5 km/h (4 Bft) 94,74 %
22.10.2022 12:40 16,8 C 16,7 C 13,3 C 84 % 1014,7 hPa 0,0 l/m 0 min 0 min 161 W/m 25,7 km/h (4 Bft) 93,62 %
22.10.2022 12:42 16,8 C 16,7 C 13,3 C 84 % 1014,6 hPa 0,0 l/m 0 min 0 min 165 W/m 19,3 km/h (3 Bft) 94,00 %
22.10.2022 12:44 16,8 C 16,7 C 13,3 C 84 % 1014,8 hPa 0,0 l/m 0 min 0 min 171 W/m 25,7 km/h (4 Bft) 91,30 %
22.10.2022 12:46 16,8 C 16,7 C 13,3 C 83 % 1014,8 hPa 0,0 l/m 0 min 0 min 172 W/m 29,0 km/h (5 Bft) 97,87 %
22.10.2022 12:48 16,8 C 16,7 C 13,3 C 83 % 1014,7 hPa 0,0 l/m 0 min 0 min 174 W/m 16,1 km/h (3 Bft) 97,87 %
22.10.2022 12:50 16,8 C 16,7 C 13,3 C 83 % 1014,8 hPa 0,0 l/m 0 min 0 min 175 W/m 29,0 km/h (5 Bft) 93,62 %
22.10.2022 12:52 16,8 C 16,7 C 13,3 C 82 % 1014,7 hPa 0,0 l/m 0 min 0 min 173 W/m 22,5 km/h (4 Bft) 95,74 %
22.10.2022 12:54 16,8 C 16,7 C 13,3 C 83 % 1014,8 hPa 0,0 l/m 0 min 0 min 169 W/m 25,7 km/h (4 Bft) 95,74 %
22.10.2022 12:56 16,8 C 16,7 C 13,3 C 82 % 1014,9 hPa 0,0 l/m 0 min 0 min 164 W/m 25,7 km/h (4 Bft) 97,83 %
22.10.2022 12:58 16,8 C 16,7 C 13,3 C 82 % 1014,7 hPa 0,0 l/m 0 min 0 min 154 W/m 22,5 km/h (4 Bft) 97,87 %
22.10.2022 13:00 16,8 C 16,7 C 13,3 C 83 % 1014,8 hPa 0,0 l/m 0 min 0 min 149 W/m 19,3 km/h (3 Bft) 95,74 %
22.10.2022 13:02 16,8 C 16,7 C 13,3 C 83 % 1014,8 hPa 0,0 l/m 0 min 0 min 146 W/m 12,9 km/h (3 Bft) 95,74 %
22.10.2022 13:04 16,8 C 16,7 C 13,3 C 83 % 1014,8 hPa 0,0 l/m 0 min 0 min 147 W/m 22,5 km/h (4 Bft) 95,74 %
22.10.2022 13:06 16,8 C 16,7 C 13,3 C 83 % 1014,9 hPa 0,0 l/m 0 min 0 min 156 W/m 32,2 km/h (5 Bft) 97,87 %
22.10.2022 13:08 16,8 C 16,7 C 13,3 C 83 % 1014,9 hPa 0,0 l/m 0 min 0 min 165 W/m 22,5 km/h (4 Bft) 97,83 %
22.10.2022 13:10 16,8 C 16,7 C 13,3 C 83 % 1014,8 hPa 0,0 l/m 0 min 0 min 163 W/m 32,2 km/h (5 Bft) 97,87 %
22.10.2022 13:12 16,8 C 16,7 C 13,3 C 83 % 1014,9 hPa 0,0 l/m 0 min 0 min 162 W/m 29,0 km/h (5 Bft) 97,87 %
22.10.2022 13:14 16,8 C 16,7 C 13,3 C 83 % 1014,9 hPa 0,0 l/m 0 min 0 min 167 W/m 19,3 km/h (3 Bft) 97,87 %
22.10.2022 13:16 16,8 C 16,7 C 13,3 C 83 % 1014,9 hPa 0,0 l/m 0 min 0 min 160 W/m 16,1 km/h (3 Bft) 97,87 %
22.10.2022 13:18 16,9 C 16,7 C 13,3 C 83 % 1014,9 hPa 0,0 l/m 0 min 0 min 147 W/m 19,3 km/h (3 Bft) 95,74 %
22.10.2022 13:20 16,9 C 16,7 C 13,3 C 83 % 1014,9 hPa 0,0 l/m 0 min 0 min 151 W/m 16,1 km/h (3 Bft) 97,83 %
22.10.2022 13:22 16,9 C 16,7 C 13,3 C 83 % 1014,9 hPa 0,0 l/m 0 min 0 min 156 W/m 29,0 km/h (5 Bft) 93,62 %
22.10.2022 13:24 16,9 C 16,7 C 13,3 C 83 % 1015,0 hPa 0,0 l/m 0 min 0 min 152 W/m 22,5 km/h (4 Bft) 97,87 %
22.10.2022 13:26 16,9 C 16,7 C 13,3 C 83 % 1015,0 hPa 0,0 l/m 0 min 0 min 138 W/m 25,7 km/h (4 Bft) 97,87 %
22.10.2022 13:28 16,9 C 16,7 C 13,3 C 83 % 1015,0 hPa 0,0 l/m 0 min 0 min 151 W/m 12,9 km/h (3 Bft) 97,87 %
22.10.2022 13:30 16,9 C 16,7 C 13,3 C 83 % 1015,0 hPa 0,0 l/m 0 min 0 min 183 W/m 19,3 km/h (3 Bft) 100,00 %
22.10.2022 13:32 16,9 C 16,7 C 13,3 C 83 % 1014,9 hPa 0,0 l/m 0 min 0 min 182 W/m 22,5 km/h (4 Bft) 100,00 %
22.10.2022 13:34 16,9 C 16,7 C 13,3 C 83 % 1015,0 hPa 0,0 l/m 0 min 0 min 174 W/m 25,7 km/h (4 Bft) 100,00 %
22.10.2022 13:36 17,0 C 16,7 C 13,3 C 82 % 1015,0 hPa 0,0 l/m 0 min 0 min 172 W/m 16,1 km/h (3 Bft) 100,00 %
22.10.2022 13:38 17,0 C 16,7 C 13,3 C 82 % 1015,0 hPa 0,0 l/m 0 min 0 min 177 W/m 19,3 km/h (3 Bft) 100,00 %
22.10.2022 13:40 17,1 C 16,7 C 13,3 C 82 % 1014,9 hPa 0,0 l/m 0 min 0 min 179 W/m 25,7 km/h (4 Bft) 100,00 %
22.10.2022 13:42 17,1 C 16,7 C 13,3 C 82 % 1014,9 hPa 0,0 l/m 0 min 0 min 185 W/m 19,3 km/h (3 Bft) 100,00 %
22.10.2022 13:44 17,1 C 17,2 C 13,3 C 82 % 1014,9 hPa 0,0 l/m 0 min 0 min 181 W/m 22,5 km/h (4 Bft) 100,00 %
22.10.2022 13:46 17,1 C 16,7 C 13,3 C 82 % 1014,9 hPa 0,0 l/m 0 min 0 min 170 W/m 16,1 km/h (3 Bft) 100,00 %
22.10.2022 13:48 17,1 C 16,7 C 13,3 C 82 % 1014,9 hPa 0,0 l/m 0 min 0 min 162 W/m 16,1 km/h (3 Bft) 97,87 %
22.10.2022 13:50 17,1 C 16,7 C 13,3 C 82 % 1015,0 hPa 0,0 l/m 0 min 0 min 157 W/m 22,5 km/h (4 Bft) 100,00 %
22.10.2022 13:52 17,1 C 16,7 C 13,3 C 82 % 1014,9 hPa 0,0 l/m 0 min 0 min 154 W/m 9,7 km/h (2 Bft) 97,87 %
22.10.2022 13:54 17,2 C 16,7 C 13,3 C 82 % 1014,9 hPa 0,0 l/m 0 min 0 min 149 W/m 12,9 km/h (3 Bft) 100,00 %
22.10.2022 13:56 17,2 C 16,7 C 13,3 C 82 % 1014,9 hPa 0,0 l/m 0 min 0 min 142 W/m 12,9 km/h (3 Bft) 97,87 %
22.10.2022 13:58 17,2 C 16,7 C 13,3 C 83 % 1014,9 hPa 0,0 l/m 0 min 0 min 144 W/m 12,9 km/h (3 Bft) 100,00 %
22.10.2022 14:00 17,2 C 16,7 C 13,3 C 82 % 1014,9 hPa 0,0 l/m 0 min 0 min 145 W/m 9,7 km/h (2 Bft) 97,87 %
22.10.2022 14:02 17,2 C 16,7 C 13,3 C 82 % 1014,9 hPa 0,0 l/m 0 min 0 min 147 W/m 22,5 km/h (4 Bft) 100,00 %
22.10.2022 14:04 17,1 C 16,7 C 13,3 C 82 % 1014,9 hPa 0,0 l/m 0 min 0 min 148 W/m 16,1 km/h (3 Bft) 97,87 %
22.10.2022 14:06 17,1 C 16,7 C 13,3 C 81 % 1014,9 hPa 0,0 l/m 0 min 0 min 138 W/m 29,0 km/h (5 Bft) 97,83 %
22.10.2022 14:08 17,1 C 16,7 C 13,3 C 81 % 1015,0 hPa 0,0 l/m 0 min 0 min 128 W/m 29,0 km/h (5 Bft) 98,15 %
22.10.2022 14:10 17,1 C 16,7 C 13,3 C 81 % 1015,0 hPa 0,0 l/m 0 min 0 min 132 W/m 25,7 km/h (4 Bft) 100,00 %
22.10.2022 14:12 17,1 C 16,7 C 13,3 C 81 % 1014,9 hPa 0,0 l/m 0 min 0 min 129 W/m 22,5 km/h (4 Bft) 97,87 %
22.10.2022 14:14 17,1 C 16,7 C 13,3 C 81 % 1014,9 hPa 0,0 l/m 0 min 0 min 127 W/m 16,1 km/h (3 Bft) 95,74 %
22.10.2022 14:16 17,1 C 16,7 C 13,3 C 81 % 1014,9 hPa 0,0 l/m 0 min 0 min 136 W/m 12,9 km/h (3 Bft) 93,48 %
22.10.2022 14:18 17,1 C 16,7 C 13,3 C 81 % 1014,9 hPa 0,0 l/m 0 min 0 min 141 W/m 12,9 km/h (3 Bft) 95,74 %
22.10.2022 14:20 17,1 C 16,7 C 13,3 C 81 % 1014,8 hPa 0,0 l/m 0 min 0 min 143 W/m 22,5 km/h (4 Bft) 97,87 %
22.10.2022 14:22 17,1 C 16,7 C 13,3 C 81 % 1014,8 hPa 0,0 l/m 0 min 0 min 158 W/m 19,3 km/h (3 Bft) 95,74 %
22.10.2022 14:24 17,1 C 16,7 C 13,3 C 81 % 1014,7 hPa 0,0 l/m 0 min 0 min 170 W/m 12,9 km/h (3 Bft) 97,87 %
22.10.2022 14:26 17,2 C 17,2 C 13,3 C 81 % 1014,7 hPa 0,0 l/m 0 min 0 min 172 W/m 19,3 km/h (3 Bft) 97,87 %
22.10.2022 14:28 17,2 C 17,2 C 13,3 C 81 % 1014,7 hPa 0,0 l/m 0 min 0 min 164 W/m 16,1 km/h (3 Bft) 95,65 %
22.10.2022 14:30 17,2 C 17,2 C 13,3 C 81 % 1014,7 hPa 0,0 l/m 0 min 0 min 155 W/m 12,9 km/h (3 Bft) 97,87 %
22.10.2022 14:32 17,2 C 17,2 C 13,3 C 81 % 1014,7 hPa 0,0 l/m 0 min 0 min 170 W/m 25,7 km/h (4 Bft) 93,62 %
22.10.2022 14:34 17,2 C 17,2 C 13,3 C 81 % 1014,6 hPa 0,0 l/m 0 min 0 min 191 W/m 6,4 km/h (2 Bft) 97,87 %
22.10.2022 14:36 17,3 C 17,2 C 13,3 C 81 % 1014,6 hPa 0,0 l/m 0 min 0 min 189 W/m 29,0 km/h (5 Bft) 97,87 %
22.10.2022 14:38 17,3 C 17,2 C 13,3 C 81 % 1014,6 hPa 0,0 l/m 0 min 0 min 171 W/m 19,3 km/h (3 Bft) 97,37 %
22.10.2022 14:40 17,3 C 17,2 C 13,3 C 81 % 1014,7 hPa 0,0 l/m 0 min 0 min 159 W/m 22,5 km/h (4 Bft) 93,62 %
22.10.2022 14:42 17,3 C 17,2 C 13,3 C 81 % 1014,7 hPa 0,0 l/m 0 min 0 min 167 W/m 19,3 km/h (3 Bft) 93,48 %
22.10.2022 14:44 17,3 C 17,2 C 13,3 C 81 % 1014,7 hPa 0,0 l/m 0 min 0 min 172 W/m 19,3 km/h (3 Bft) 95,74 %
22.10.2022 14:46 17,3 C 17,2 C 13,3 C 80 % 1014,7 hPa 0,0 l/m 0 min 0 min 166 W/m 22,5 km/h (4 Bft) 95,74 %
22.10.2022 14:48 17,3 C 17,2 C 13,3 C 80 % 1014,7 hPa 0,0 l/m 0 min 0 min 166 W/m 16,1 km/h (3 Bft) 97,87 %
22.10.2022 14:50 17,4 C 17,2 C 13,3 C 80 % 1014,7 hPa 0,0 l/m 0 min 0 min 180 W/m 22,5 km/h (4 Bft) 97,87 %
22.10.2022 14:52 17,4 C 17,2 C 13,3 C 80 % 1014,6 hPa 0,0 l/m 0 min 0 min 192 W/m 12,9 km/h (3 Bft) 95,74 %
22.10.2022 14:54 17,4 C 17,8 C 13,9 C 80 % 1014,6 hPa 0,0 l/m 0 min 0 min 195 W/m 16,1 km/h (3 Bft) 97,83 %
22.10.2022 14:56 17,5 C 17,8 C 13,9 C 80 % 1014,7 hPa 0,0 l/m 0 min 0 min 196 W/m 12,9 km/h (3 Bft) 97,87 %
22.10.2022 14:58 17,5 C 17,8 C 13,9 C 80 % 1014,6 hPa 0,0 l/m 0 min 0 min 189 W/m 16,1 km/h (3 Bft) 97,87 %
22.10.2022 15:00 17,5 C 17,8 C 13,9 C 80 % 1014,7 hPa 0,0 l/m 0 min 0 min 178 W/m 19,3 km/h (3 Bft) 97,87 %
22.10.2022 15:02 17,6 C 17,8 C 13,9 C 80 % 1014,7 hPa 0,0 l/m 0 min 0 min 159 W/m 22,5 km/h (4 Bft) 97,87 %
22.10.2022 15:04 17,6 C 17,2 C 13,9 C 80 % 1014,8 hPa 0,0 l/m 0 min 0 min 154 W/m 29,0 km/h (5 Bft) 95,74 %
22.10.2022 15:06 17,6 C 17,2 C 13,9 C 80 % 1014,8 hPa 0,0 l/m 0 min 0 min 145 W/m 19,3 km/h (3 Bft) 98,28 %
22.10.2022 15:08 17,6 C 17,2 C 13,9 C 80 % 1014,8 hPa 0,0 l/m 0 min 0 min 134 W/m 6,4 km/h (2 Bft) 97,14 %
22.10.2022 15:10 17,6 C 17,2 C 13,3 C 80 % 1014,8 hPa 0,0 l/m 0 min 0 min 137 W/m 12,9 km/h (3 Bft) 97,87 %
22.10.2022 15:12 17,6 C 17,2 C 13,3 C 80 % 1014,8 hPa 0,0 l/m 0 min 0 min 138 W/m 16,1 km/h (3 Bft) 97,87 %
22.10.2022 15:14 17,6 C 17,2 C 13,3 C 80 % 1014,8 hPa 0,0 l/m 0 min 0 min 147 W/m 12,9 km/h (3 Bft) 97,87 %
22.10.2022 15:16 17,6 C 17,2 C 13,3 C 80 % 1014,8 hPa 0,0 l/m 0 min 0 min 156 W/m 16,1 km/h (3 Bft) 97,87 %
22.10.2022 15:18 17,6 C 17,2 C 13,3 C 80 % 1014,8 hPa 0,0 l/m 0 min 0 min 142 W/m 19,3 km/h (3 Bft) 97,83 %
22.10.2022 15:20 17,6 C 17,2 C 13,3 C 79 % 1014,8 hPa 0,0 l/m 0 min 0 min 132 W/m 9,7 km/h (2 Bft) 95,74 %
22.10.2022 15:22 17,6 C 17,2 C 13,3 C 80 % 1014,8 hPa 0,0 l/m 0 min 0 min 128 W/m 16,1 km/h (3 Bft) 97,87 %
22.10.2022 15:24 17,6 C 17,2 C 13,3 C 80 % 1014,8 hPa 0,0 l/m 0 min 0 min 124 W/m 22,5 km/h (4 Bft) 100,00 %
22.10.2022 15:26 17,6 C 17,2 C 13,3 C 80 % 1014,8 hPa 0,0 l/m 0 min 0 min 106 W/m 16,1 km/h (3 Bft) 95,74 %
22.10.2022 15:28 17,6 C 17,2 C 13,3 C 79 % 1014,8 hPa 0,0 l/m 0 min 0 min 79 W/m 25,7 km/h (4 Bft) 97,87 %
22.10.2022 15:30 17,6 C 16,7 C 13,3 C 79 % 1014,8 hPa 0,0 l/m 0 min 0 min 62 W/m 6,4 km/h (2 Bft) 97,83 %
22.10.2022 15:32 17,6 C 16,7 C 13,3 C 79 % 1014,8 hPa 0,0 l/m 0 min 0 min 57 W/m 22,5 km/h (4 Bft) 97,87 %
22.10.2022 15:34 17,5 C 16,7 C 13,3 C 79 % 1014,8 hPa 0,0 l/m 0 min 0 min 60 W/m 16,1 km/h (3 Bft) 100,00 %
22.10.2022 15:36 17,5 C 16,7 C 13,3 C 79 % 1014,8 hPa 0,0 l/m 0 min 0 min 69 W/m 12,9 km/h (3 Bft) 96,61 %
22.10.2022 15:38 17,4 C 16,7 C 13,3 C 80 % 1014,9 hPa 0,0 l/m 0 min 0 min 87 W/m 16,1 km/h (3 Bft) 100,00 %
22.10.2022 15:40 17,4 C 16,7 C 13,3 C 80 % 1014,8 hPa 0,0 l/m 0 min 0 min 95 W/m 16,1 km/h (3 Bft) 97,87 %
22.10.2022 15:42 17,4 C 16,7 C 13,3 C 79 % 1014,8 hPa 0,0 l/m 0 min 0 min 86 W/m 6,4 km/h (2 Bft) 95,65 %
22.10.2022 15:44 17,4 C 16,7 C 13,3 C 79 % 1014,8 hPa 0,0 l/m 0 min 0 min 68 W/m 6,4 km/h (2 Bft) 97,87 %
22.10.2022 15:46 17,4 C 16,7 C 13,3 C 80 % 1014,8 hPa 0,0 l/m 0 min 0 min 39 W/m 16,1 km/h (3 Bft) 97,87 %
22.10.2022 15:48 17,4 C 16,7 C 13,3 C 80 % 1014,8 hPa 0,0 l/m 0 min 0 min 25 W/m 12,9 km/h (3 Bft) 95,74 %
22.10.2022 15:50 17,4 C 16,7 C 12,8 C 80 % 1014,8 hPa 0,0 l/m 0 min 0 min 24 W/m 16,1 km/h (3 Bft) 97,92 %
22.10.2022 15:52 17,4 C 16,7 C 12,8 C 80 % 1014,8 hPa 0,0 l/m 0 min 0 min 29 W/m 6,4 km/h (2 Bft) 97,83 %
22.10.2022 15:54 17,4 C 16,7 C 12,8 C 80 % 1014,8 hPa 0,0 l/m 0 min 0 min 45 W/m 16,1 km/h (3 Bft) 97,87 %
22.10.2022 15:56 17,3 C 16,7 C 12,8 C 80 % 1014,9 hPa 0,0 l/m 0 min 0 min 63 W/m 12,9 km/h (3 Bft) 97,87 %
22.10.2022 15:58 17,3 C 16,7 C 12,8 C 80 % 1014,9 hPa 0,0 l/m 0 min 0 min 89 W/m 9,7 km/h (2 Bft) 97,87 %
22.10.2022 16:00 17,3 C 16,7 C 12,8 C 80 % 1014,9 hPa 0,0 l/m 0 min 0 min 102 W/m 6,4 km/h (2 Bft) 95,74 %
22.10.2022 16:02 17,3 C 16,7 C 12,8 C 80 % 1014,9 hPa 0,0 l/m 0 min 0 min 104 W/m 12,9 km/h (3 Bft) 97,87 %
22.10.2022 16:04 17,3 C 16,7 C 12,8 C 80 % 1014,8 hPa 0,0 l/m 0 min 0 min 94 W/m 9,7 km/h (2 Bft) 97,83 %
22.10.2022 16:06 17,3 C 16,7 C 13,3 C 80 % 1014,8 hPa 0,0 l/m 0 min 0 min 81 W/m 12,9 km/h (3 Bft) 95,74 %
22.10.2022 16:08 17,3 C 16,7 C 13,3 C 80 % 1014,8 hPa 0,0 l/m 0 min 0 min 69 W/m 6,4 km/h (2 Bft) 95,74 %
22.10.2022 16:10 17,3 C 16,7 C 13,3 C 80 % 1014,8 hPa 0,0 l/m 0 min 0 min 68 W/m 6,4 km/h (2 Bft) 97,87 %
22.10.2022 16:12 17,3 C 16,7 C 13,3 C 80 % 1014,8 hPa 0,0 l/m 0 min 0 min 94 W/m 6,4 km/h (2 Bft) 97,87 %
22.10.2022 16:14 17,4 C 17,2 C 13,3 C 80 % 1014,8 hPa 0,0 l/m 0 min 0 min 124 W/m 6,4 km/h (2 Bft) 95,74 %
22.10.2022 16:16 17,4 C 17,2 C 13,3 C 80 % 1014,8 hPa 0,0 l/m 2 min 0 min 334 W/m 9,7 km/h (2 Bft) 95,65 %
22.10.2022 16:18 17,4 C 17,8 C 13,3 C 80 % 1014,7 hPa 0,0 l/m 2 min 0 min 273 W/m 6,4 km/h (2 Bft) 95,74 %
22.10.2022 16:20 17,5 C 17,8 C 13,3 C 80 % 1014,7 hPa 0,0 l/m 2 min 0 min 149 W/m 3,2 km/h (1 Bft) 95,74 %
22.10.2022 16:22 17,5 C 17,8 C 13,3 C 80 % 1014,7 hPa 0,0 l/m 2 min 0 min 160 W/m 12,9 km/h (3 Bft) 93,62 %
22.10.2022 16:24 17,6 C 17,8 C 13,3 C 80 % 1014,7 hPa 0,0 l/m 0 min 0 min 130 W/m 12,9 km/h (3 Bft) 95,74 %
22.10.2022 16:26 17,6 C 17,8 C 13,3 C 80 % 1014,7 hPa 0,0 l/m 2 min 0 min 135 W/m 12,9 km/h (3 Bft) 76,60 %
22.10.2022 16:28 17,6 C 17,8 C 13,3 C 80 % 1014,7 hPa 0,0 l/m 2 min 0 min 132 W/m 6,4 km/h (2 Bft) 97,30 %
22.10.2022 16:30 17,7 C 17,8 C 13,3 C 79 % 1014,7 hPa 0,0 l/m 2 min 0 min 157 W/m 16,1 km/h (3 Bft) 71,79 %
22.10.2022 16:32 17,7 C 17,8 C 13,3 C 79 % 1014,8 hPa 0,0 l/m 2 min 0 min 141 W/m 12,9 km/h (3 Bft) 72,34 %
22.10.2022 16:34 17,7 C 17,8 C 13,3 C 79 % 1014,8 hPa 0,0 l/m 2 min 0 min 177 W/m 9,7 km/h (2 Bft) 55,32 %
22.10.2022 16:36 17,7 C 17,8 C 13,3 C 79 % 1014,8 hPa 0,0 l/m 2 min 0 min 258 W/m 6,4 km/h (2 Bft) 57,45 %
22.10.2022 16:38 17,8 C 17,8 C 13,3 C 79 % 1014,8 hPa 0,0 l/m 2 min 0 min 258 W/m 3,2 km/h (1 Bft) 31,25 %
22.10.2022 16:40 17,8 C 18,3 C 13,3 C 79 % 1014,8 hPa 0,0 l/m 2 min 0 min 207 W/m 12,9 km/h (3 Bft) 68,09 %
22.10.2022 16:42 17,9 C 17,8 C 13,3 C 79 % 1014,8 hPa 0,0 l/m 2 min 0 min 188 W/m 16,1 km/h (3 Bft) 46,81 %
22.10.2022 16:44 17,9 C 17,8 C 13,3 C 79 % 1014,8 hPa 0,0 l/m 2 min 0 min 188 W/m 9,7 km/h (2 Bft) 42,55 %
22.10.2022 16:46 17,9 C 17,8 C 13,3 C 78 % 1014,8 hPa 0,0 l/m 2 min 0 min 166 W/m 6,4 km/h (2 Bft) 55,32 %
22.10.2022 16:48 18,0 C 17,8 C 13,3 C 78 % 1014,7 hPa 0,0 l/m 0 min 0 min 106 W/m 12,9 km/h (3 Bft) 61,70 %
22.10.2022 16:50 18,0 C 17,2 C 13,3 C 78 % 1014,7 hPa 0,0 l/m 2 min 0 min 127 W/m 9,7 km/h (2 Bft) 34,78 %
22.10.2022 16:52 18,0 C 17,2 C 13,3 C 78 % 1014,8 hPa 0,0 l/m 2 min 0 min 142 W/m 12,9 km/h (3 Bft) 48,94 %
22.10.2022 16:54 18,0 C 17,2 C 13,3 C 78 % 1014,8 hPa 0,0 l/m 2 min 0 min 184 W/m 6,4 km/h (2 Bft) 55,32 %
22.10.2022 16:56 18,0 C 17,2 C 13,3 C 78 % 1014,8 hPa 0,0 l/m 2 min 0 min 138 W/m 3,2 km/h (1 Bft) 95,74 %
22.10.2022 16:58 18,0 C 17,2 C 13,3 C 78 % 1014,8 hPa 0,0 l/m 0 min 0 min 80 W/m 12,9 km/h (3 Bft) 100,00 %
22.10.2022 17:00 18,0 C 17,2 C 13,3 C 78 % 1014,8 hPa 0,0 l/m 0 min 0 min 73 W/m 12,9 km/h (3 Bft) 100,00 %
22.10.2022 17:02 18,0 C 17,2 C 13,3 C 78 % 1014,8 hPa 0,0 l/m 0 min 0 min 75 W/m 12,9 km/h (3 Bft) 87,23 %
22.10.2022 17:04 18,0 C 17,2 C 13,3 C 78 % 1014,9 hPa 0,0 l/m 0 min 0 min 77 W/m 9,7 km/h (2 Bft) 50,00 %
22.10.2022 17:06 18,0 C 17,2 C 13,3 C 78 % 1014,9 hPa 0,0 l/m 0 min 0 min 72 W/m 9,7 km/h (2 Bft) 70,21 %
22.10.2022 17:08 18,0 C 17,2 C 13,3 C 78 % 1014,9 hPa 0,0 l/m 0 min 0 min 64 W/m 12,9 km/h (3 Bft) 87,23 %
22.10.2022 17:10 18,0 C 17,2 C 13,3 C 77 % 1014,9 hPa 0,0 l/m 0 min 0 min 61 W/m 16,1 km/h (3 Bft) 63,83 %
22.10.2022 17:12 18,0 C 17,2 C 13,3 C 77 % 1014,9 hPa 0,0 l/m 0 min 0 min 55 W/m 9,7 km/h (2 Bft) 27,66 %
22.10.2022 17:14 18,0 C 17,2 C 13,3 C 78 % 1014,9 hPa 0,0 l/m 0 min 0 min 54 W/m 19,3 km/h (3 Bft) 54,35 %
22.10.2022 17:16 18,0 C 17,2 C 13,3 C 78 % 1014,9 hPa 0,0 l/m 0 min 0 min 51 W/m 12,9 km/h (3 Bft) 76,60 %
22.10.2022 17:18 17,9 C 17,2 C 13,3 C 78 % 1014,9 hPa 0,0 l/m 0 min 0 min 49 W/m 9,7 km/h (2 Bft) 46,81 %
22.10.2022 17:20 17,9 C 17,2 C 12,8 C 78 % 1014,9 hPa 0,0 l/m 0 min 0 min 46 W/m 9,7 km/h (2 Bft) 53,19 %
22.10.2022 17:22 17,9 C 17,2 C 12,8 C 78 % 1014,9 hPa 0,0 l/m 0 min 0 min 45 W/m 9,7 km/h (2 Bft) 55,32 %
22.10.2022 17:24 17,9 C 16,7 C 12,8 C 78 % 1014,9 hPa 0,0 l/m 0 min 0 min 41 W/m 12,9 km/h (3 Bft) 74,47 %
22.10.2022 17:26 17,9 C 16,7 C 12,8 C 78 % 1015,0 hPa 0,0 l/m 0 min 0 min 39 W/m 9,7 km/h (2 Bft) 71,74 %
22.10.2022 17:28 17,8 C 16,7 C 12,8 C 79 % 1015,0 hPa 0,0 l/m 0 min 0 min 35 W/m 6,4 km/h (2 Bft) 80,85 %
22.10.2022 17:30 17,8 C 16,7 C 12,8 C 79 % 1015,0 hPa 0,0 l/m 0 min 0 min 32 W/m 9,7 km/h (2 Bft) 85,11 %
22.10.2022 17:32 17,8 C 16,7 C 12,8 C 78 % 1015,0 hPa 0,0 l/m 0 min 0 min 30 W/m 6,4 km/h (2 Bft) 95,74 %
22.10.2022 17:34 17,8 C 16,7 C 12,8 C 79 % 1015,0 hPa 0,0 l/m 0 min 0 min 28 W/m 6,4 km/h (2 Bft) 97,87 %
22.10.2022 17:36 17,7 C 16,7 C 12,8 C 79 % 1015,0 hPa 0,0 l/m 0 min 0 min 25 W/m 9,7 km/h (2 Bft) 95,74 %
22.10.2022 17:38 17,7 C 16,7 C 12,8 C 79 % 1015,1 hPa 0,0 l/m 0 min 0 min 24 W/m 12,9 km/h (3 Bft) 95,65 %
22.10.2022 17:40 17,6 C 16,1 C 12,8 C 79 % 1015,1 hPa 0,0 l/m 0 min 0 min 23 W/m 6,4 km/h (2 Bft) 97,87 %
22.10.2022 17:42 17,6 C 16,1 C 12,8 C 79 % 1015,1 hPa 0,0 l/m 0 min 0 min 22 W/m 6,4 km/h (2 Bft) 97,87 %
22.10.2022 17:44 17,6 C 16,1 C 12,2 C 80 % 1015,2 hPa 0,0 l/m 0 min 0 min 21 W/m 3,2 km/h (1 Bft) 97,87 %
22.10.2022 17:46 17,5 C 16,1 C 12,2 C 80 % 1015,2 hPa 0,0 l/m 0 min 0 min 20 W/m 3,2 km/h (1 Bft) 97,87 %
22.10.2022 17:48 17,4 C 16,1 C 12,2 C 80 % 1015,2 hPa 0,0 l/m 0 min 0 min 19 W/m 3,2 km/h (1 Bft) 95,74 %
22.10.2022 17:50 17,4 C 16,1 C 12,2 C 80 % 1015,2 hPa 0,0 l/m 0 min 0 min 19 W/m 0,0 km/h (0 Bft) 95,65 %
22.10.2022 17:52 17,4 C 15,6 C 11,7 C 80 % 1015,1 hPa 0,0 l/m 0 min 0 min 19 W/m 3,2 km/h (1 Bft) 97,87 %
22.10.2022 17:54 17,4 C 15,6 C 11,7 C 80 % 1015,2 hPa 0,0 l/m 0 min 0 min 18 W/m 3,2 km/h (1 Bft) 93,62 %
22.10.2022 17:56 17,3 C 15,6 C 11,7 C 80 % 1015,2 hPa 0,0 l/m 0 min 0 min 18 W/m 0,0 km/h (0 Bft) 100,00 %
22.10.2022 17:58 17,3 C 15,6 C 11,1 C 80 % 1015,2 hPa 0,0 l/m 0 min 0 min 17 W/m 0,0 km/h (0 Bft) 97,87 %
22.10.2022 18:00 17,3 C 15,6 C 11,1 C 80 % 1015,1 hPa 0,0 l/m 0 min 0 min 16 W/m 3,2 km/h (1 Bft) 100,00 %
22.10.2022 18:02 17,3 C 15,6 C 11,1 C 81 % 1015,1 hPa 0,0 l/m 0 min 0 min 15 W/m 3,2 km/h (1 Bft) 97,87 %
22.10.2022 18:04 17,2 C 15,6 C 11,1 C 81 % 1015,2 hPa 0,0 l/m 0 min 0 min 14 W/m 3,2 km/h (1 Bft) 95,74 %
22.10.2022 18:08 17,1 C 15,6 C 11,1 C 81 % 1015,2 hPa 0,0 l/m 0 min 0 min 13 W/m 0,0 km/h (0 Bft) 98,94 %
22.10.2022 18:10 17,1 C 15,0 C 11,1 C 81 % 1015,2 hPa 0,0 l/m 0 min 0 min 12 W/m 0,0 km/h (0 Bft) 97,87 %
22.10.2022 18:12 17,1 C 15,0 C 10,6 C 81 % 1015,2 hPa 0,0 l/m 0 min 0 min 11 W/m 0,0 km/h (0 Bft) 97,83 %
22.10.2022 18:14 17,1 C 15,0 C 10,6 C 81 % 1015,3 hPa 0,0 l/m 0 min 0 min 10 W/m 0,0 km/h (0 Bft) 97,87 %
22.10.2022 18:16 17,0 C 14,4 C 10,6 C 81 % 1015,2 hPa 0,0 l/m 0 min 0 min 8 W/m 0,0 km/h (0 Bft) 97,87 %
22.10.2022 18:18 16,9 C 14,4 C 10,6 C 82 % 1015,2 hPa 0,0 l/m 0 min 0 min 7 W/m 0,0 km/h (0 Bft) 95,74 %
22.10.2022 18:20 16,9 C 14,4 C 10,6 C 82 % 1015,1 hPa 0,0 l/m 0 min 0 min 5 W/m 0,0 km/h (0 Bft) 93,62 %
22.10.2022 18:22 16,8 C 14,4 C 10,0 C 82 % 1015,1 hPa 0,0 l/m 0 min 0 min 3 W/m 0,0 km/h (0 Bft) 95,74 %
22.10.2022 18:24 16,8 C 13,9 C 10,0 C 82 % 1015,2 hPa 0,0 l/m 0 min 0 min 0 W/m 0,0 km/h (0 Bft) 97,83 %
22.10.2022 18:26 16,7 C 13,9 C 10,0 C 82 % 1015,2 hPa 0,0 l/m 0 min 0 min 0 W/m 0,0 km/h (0 Bft) 95,74 %
22.10.2022 18:28 16,7 C 13,9 C 10,0 C 82 % 1015,2 hPa 0,0 l/m 0 min 0 min 0 W/m 0,0 km/h (0 Bft) 95,74 %
22.10.2022 18:30 16,6 C 13,9 C 10,0 C 82 % 1015,2 hPa 0,0 l/m 0 min 0 min 0 W/m 0,0 km/h (0 Bft) 95,74 %
22.10.2022 18:32 16,6 C 13,9 C 10,0 C 82 % 1015,2 hPa 0,0 l/m 0 min 0 min 0 W/m 0,0 km/h (0 Bft) 95,74 %
22.10.2022 18:34 16,5 C 13,3 C 10,0 C 83 % 1015,2 hPa 0,0 l/m 0 min 0 min 0 W/m 0,0 km/h (0 Bft) 95,74 %
22.10.2022 18:36 16,4 C 13,3 C 9,4 C 83 % 1015,1 hPa 0,0 l/m 0 min 0 min 0 W/m 0,0 km/h (0 Bft) 95,65 %
22.10.2022 18:38 16,3 C 13,3 C 9,4 C 83 % 1015,2 hPa 0,0 l/m 0 min 0 min 0 W/m 0,0 km/h (0 Bft) 95,74 %
22.10.2022 18:40 16,3 C 13,3 C 9,4 C 83 % 1015,2 hPa 0,0 l/m 0 min 0 min 0 W/m 3,2 km/h (1 Bft) 89,36 %
22.10.2022 18:42 16,2 C 13,9 C 9,4 C 84 % 1015,1 hPa 0,0 l/m 0 min 0 min 0 W/m 0,0 km/h (0 Bft) 38,30 %
22.10.2022 18:44 16,2 C 13,9 C 9,4 C 84 % 1015,2 hPa 0,0 l/m 0 min 0 min 0 W/m 0,0 km/h (0 Bft) 48,94 %
22.10.2022 18:46 16,1 C 13,9 C 10,0 C 84 % 1015,2 hPa 0,0 l/m 0 min 0 min 0 W/m 0,0 km/h (0 Bft) 46,81 %
22.10.2022 18:48 16,0 C 13,9 C 10,0 C 85 % 1015,2 hPa 0,0 l/m 0 min 0 min 0 W/m 3,2 km/h (1 Bft) 34,78 %
22.10.2022 18:50 15,9 C 13,9 C 10,0 C 85 % 1015,2 hPa 0,0 l/m 0 min 0 min 0 W/m 3,2 km/h (1 Bft) 53,19 %
22.10.2022 18:52 15,8 C 13,9 C 10,6 C 85 % 1015,3 hPa 0,0 l/m 0 min 0 min 0 W/m 3,2 km/h (1 Bft) 74,47 %
22.10.2022 18:54 15,8 C 13,9 C 10,6 C 86 % 1015,3 hPa 0,0 l/m 0 min 0 min 0 W/m 0,0 km/h (0 Bft) 78,72 %
22.10.2022 18:56 15,7 C 13,9 C 10,0 C 86 % 1015,4 hPa 0,0 l/m 0 min 0 min 0 W/m 0,0 km/h (0 Bft) 95,74 %
22.10.2022 18:58 15,7 C 13,9 C 10,0 C 86 % 1015,3 hPa 0,0 l/m 0 min 0 min 0 W/m 0,0 km/h (0 Bft) 95,65 %
22.10.2022 19:00 15,6 C 13,9 C 10,0 C 86 % 1015,3 hPa 0,0 l/m 0 min 0 min 0 W/m 0,0 km/h (0 Bft) 91,49 %
22.10.2022 19:02 15,6 C 13,9 C 10,0 C 87 % 1015,4 hPa 0,0 l/m 0 min 0 min 0 W/m 0,0 km/h (0 Bft) 95,74 %
22.10.2022 19:04 15,6 C 13,9 C 10,6 C 87 % 1015,4 hPa 0,0 l/m 0 min 0 min 0 W/m 0,0 km/h (0 Bft) 100,00 %
22.10.2022 19:06 15,5 C 14,4 C 10,6 C 87 % 1015,4 hPa 0,0 l/m 0 min 0 min 0 W/m 0,0 km/h (0 Bft) 57,45 %
22.10.2022 19:08 15,4 C 14,4 C 10,6 C 87 % 1015,4 hPa 0,0 l/m 0 min 0 min 0 W/m 0,0 km/h (0 Bft) 76,60 %
22.10.2022 19:10 15,4 C 14,4 C 10,6 C 87 % 1015,4 hPa 0,0 l/m 0 min 0 min 0 W/m 3,2 km/h (1 Bft) 100,00 %
22.10.2022 19:12 15,4 C 14,4 C 10,6 C 87 % 1015,4 hPa 0,0 l/m 0 min 0 min 0 W/m 3,2 km/h (1 Bft) 95,74 %
22.10.2022 19:14 15,4 C 14,4 C 10,6 C 87 % 1015,4 hPa 0,0 l/m 0 min 0 min 0 W/m 3,2 km/h (1 Bft) 100,00 %
22.10.2022 19:16 15,3 C 14,4 C 10,6 C 87 % 1015,4 hPa 0,0 l/m 0 min 0 min 0 W/m 3,2 km/h (1 Bft) 97,87 %
22.10.2022 19:18 15,3 C 14,4 C 10,6 C 87 % 1015,4 hPa 0,0 l/m 0 min 0 min 0 W/m 3,2 km/h (1 Bft) 100,00 %
22.10.2022 19:20 15,3 C 14,4 C 10,6 C 87 % 1015,5 hPa 0,0 l/m 0 min 0 min 0 W/m 0,0 km/h (0 Bft) 100,00 %
22.10.2022 19:22 15,3 C 14,4 C 10,6 C 87 % 1015,5 hPa 0,0 l/m 0 min 0 min 0 W/m 0,0 km/h (0 Bft) 100,00 %
22.10.2022 19:24 15,3 C 14,4 C 10,6 C 87 % 1015,5 hPa 0,0 l/m 0 min 0 min 0 W/m 0,0 km/h (0 Bft) 97,87 %
22.10.2022 19:26 15,3 C 14,4 C 10,6 C 87 % 1015,5 hPa 0,0 l/m 0 min 0 min 0 W/m 3,2 km/h (1 Bft) 97,87 %
22.10.2022 19:28 15,3 C 14,4 C 10,6 C 87 % 1015,5 hPa 0,0 l/m 0 min 0 min 0 W/m 3,2 km/h (1 Bft) 100,00 %
22.10.2022 19:30 15,2 C 14,4 C 10,6 C 88 % 1015,5 hPa 0,0 l/m 0 min 0 min 0 W/m 0,0 km/h (0 Bft) 100,00 %
22.10.2022 19:32 15,2 C 14,4 C 10,6 C 88 % 1015,5 hPa 0,0 l/m 0 min 0 min 0 W/m 0,0 km/h (0 Bft) 100,00 %
22.10.2022 19:34 15,2 C 14,4 C 10,6 C 88 % 1015,5 hPa 0,0 l/m 0 min 0 min 0 W/m 3,2 km/h (1 Bft) 100,00 %
22.10.2022 19:36 15,2 C 14,4 C 10,6 C 88 % 1015,6 hPa 0,0 l/m 0 min 0 min 0 W/m 3,2 km/h (1 Bft) 100,00 %
22.10.2022 19:38 15,2 C 14,4 C 10,6 C 88 % 1015,6 hPa 0,0 l/m 0 min 0 min 0 W/m 3,2 km/h (1 Bft) 100,00 %
22.10.2022 19:40 15,2 C 14,4 C 10,6 C 88 % 1015,6 hPa 0,0 l/m 0 min 0 min 0 W/m 3,2 km/h (1 Bft) 93,62 %
22.10.2022 19:42 15,2 C 14,4 C 10,6 C 88 % 1015,6 hPa 0,0 l/m 0 min 0 min 0 W/m 3,2 km/h (1 Bft) 100,00 %
22.10.2022 19:44 15,2 C 14,4 C 10,6 C 88 % 1015,5 hPa 0,0 l/m 0 min 0 min 0 W/m 3,2 km/h (1 Bft) 95,74 %
22.10.2022 19:46 15,2 C 14,4 C 10,6 C 88 % 1015,6 hPa 0,0 l/m 0 min 0 min 0 W/m 3,2 km/h (1 Bft) 100,00 %
22.10.2022 19:48 15,2 C 14,4 C 10,6 C 88 % 1015,6 hPa 0,0 l/m 0 min 0 min 0 W/m 0,0 km/h (0 Bft) 97,87 %
22.10.2022 19:50 15,2 C 13,9 C 10,6 C 88 % 1015,6 hPa 0,0 l/m 0 min 0 min 0 W/m 0,0 km/h (0 Bft) 97,87 %
22.10.2022 19:52 15,1 C 13,9 C 10,6 C 88 % 1015,6 hPa 0,0 l/m 0 min 0 min 0 W/m 3,2 km/h (1 Bft) 100,00 %
22.10.2022 19:54 15,1 C 13,9 C 10,6 C 88 % 1015,6 hPa 0,0 l/m 0 min 0 min 0 W/m 3,2 km/h (1 Bft) 100,00 %
22.10.2022 19:56 15,1 C 13,9 C 10,6 C 88 % 1015,6 hPa 0,0 l/m 0 min 0 min 0 W/m 0,0 km/h (0 Bft) 95,74 %
22.10.2022 19:58 15,1 C 13,9 C 10,6 C 88 % 1015,6 hPa 0,0 l/m 0 min 0 min 0 W/m 6,4 km/h (2 Bft) 100,00 %
22.10.2022 20:00 15,1 C 13,9 C 10,6 C 88 % 1015,6 hPa 0,0 l/m 0 min 0 min 0 W/m 3,2 km/h (1 Bft) 97,87 %
22.10.2022 20:02 15,1 C 13,9 C 10,6 C 88 % 1015,5 hPa 0,0 l/m 0 min 0 min 0 W/m 3,2 km/h (1 Bft) 97,87 %
22.10.2022 20:04 15,1 C 13,9 C 10,6 C 88 % 1015,6 hPa 0,0 l/m 0 min 0 min 0 W/m 0,0 km/h (0 Bft) 97,87 %
22.10.2022 20:06 15,1 C 13,9 C 10,6 C 88 % 1015,6 hPa 0,0 l/m 0 min 0 min 0 W/m 3,2 km/h (1 Bft) 97,87 %
22.10.2022 20:08 15,1 C 13,9 C 10,6 C 88 % 1015,5 hPa 0,0 l/m 0 min 0 min 0 W/m 3,2 km/h (1 Bft) 97,14 %
22.10.2022 20:10 15,1 C 13,9 C 10,6 C 88 % 1015,5 hPa 0,0 l/m 0 min 0 min 0 W/m 0,0 km/h (0 Bft) 97,87 %
22.10.2022 20:12 15,0 C 13,9 C 10,6 C 88 % 1015,6 hPa 0,0 l/m 0 min 0 min 0 W/m 0,0 km/h (0 Bft) 93,48 %
22.10.2022 20:14 15,0 C 13,9 C 10,6 C 88 % 1015,6 hPa 0,0 l/m 0 min 0 min 0 W/m 3,2 km/h (1 Bft) 95,74 %
22.10.2022 20:16 15,0 C 13,9 C 10,6 C 88 % 1015,6 hPa 0,0 l/m 0 min 0 min 0 W/m 3,2 km/h (1 Bft) 95,74 %
22.10.2022 20:18 15,0 C 13,9 C 10,6 C 88 % 1015,6 hPa 0,0 l/m 0 min 0 min 0 W/m 3,2 km/h (1 Bft) 89,36 %
22.10.2022 20:20 14,9 C 13,9 C 10,6 C 88 % 1015,6 hPa 0,0 l/m 0 min 0 min 0 W/m 3,2 km/h (1 Bft) 93,62 %
22.10.2022 20:22 14,9 C 13,9 C 10,6 C 88 % 1015,6 hPa 0,0 l/m 0 min 0 min 0 W/m 3,2 km/h (1 Bft) 95,74 %
22.10.2022 20:24 14,9 C 13,9 C 10,6 C 88 % 1015,7 hPa 0,0 l/m 0 min 0 min 0 W/m 3,2 km/h (1 Bft) 95,65 %
22.10.2022 20:26 14,9 C 13,9 C 10,6 C 88 % 1015,7 hPa 0,0 l/m 0 min 0 min 0 W/m 0,0 km/h (0 Bft) 96,23 %
22.10.2022 20:28 14,8 C 13,9 C 10,6 C 88 % 1015,7 hPa 0,0 l/m 0 min 0 min 0 W/m 0,0 km/h (0 Bft) 90,24 %
22.10.2022 20:30 14,8 C 13,9 C 10,6 C 89 % 1015,6 hPa 0,0 l/m 0 min 0 min 0 W/m 0,0 km/h (0 Bft) 96,23 %
22.10.2022 20:32 14,8 C 13,9 C 10,6 C 89 % 1015,6 hPa 0,0 l/m 0 min 0 min 0 W/m 0,0 km/h (0 Bft) 95,12 %
22.10.2022 20:34 14,8 C 13,9 C 10,6 C 89 % 1015,6 hPa 0,0 l/m 0 min 0 min 0 W/m 0,0 km/h (0 Bft) 95,74 %
22.10.2022 20:36 14,8 C 13,3 C 10,6 C 89 % 1015,6 hPa 0,0 l/m 0 min 0 min 0 W/m 0,0 km/h (0 Bft) 93,75 %
22.10.2022 20:38 14,8 C 13,3 C 10,6 C 89 % 1015,6 hPa 0,0 l/m 0 min 0 min 0 W/m 0,0 km/h (0 Bft) 97,14 %
22.10.2022 20:40 14,7 C 13,3 C 10,6 C 89 % 1015,6 hPa 0,0 l/m 0 min 0 min 0 W/m 0,0 km/h (0 Bft) 91,49 %
22.10.2022 20:42 14,7 C 13,3 C 10,0 C 89 % 1015,6 hPa 0,0 l/m 0 min 0 min 0 W/m 0,0 km/h (0 Bft) 80,85 %
22.10.2022 20:44 14,7 C 13,3 C 10,0 C 89 % 1015,5 hPa 0,0 l/m 0 min 0 min 0 W/m 0,0 km/h (0 Bft) 78,72 %
22.10.2022 20:46 14,7 C 13,3 C 10,0 C 89 % 1015,5 hPa 0,0 l/m 0 min 0 min 0 W/m 0,0 km/h (0 Bft) 95,12 %
22.10.2022 20:48 14,6 C 13,3 C 10,0 C 89 % 1015,6 hPa 0,0 l/m 0 min 0 min 0 W/m 0,0 km/h (0 Bft) 93,48 %
22.10.2022 20:50 14,6 C 13,3 C 10,0 C 89 % 1015,6 hPa 0,0 l/m 0 min 0 min 0 W/m 0,0 km/h (0 Bft) 96,23 %
22.10.2022 20:52 14,6 C 13,3 C 10,0 C 89 % 1015,6 hPa 0,0 l/m 0 min 0 min 0 W/m 0,0 km/h (0 Bft) 95,74 %
22.10.2022 20:54 14,6 C 13,3 C 10,0 C 89 % 1015,6 hPa 0,0 l/m 0 min 0 min 0 W/m 0,0 km/h (0 Bft) 97,87 %
22.10.2022 20:56 14,6 C 13,3 C 10,0 C 89 % 1015,6 hPa 0,0 l/m 0 min 0 min 0 W/m 3,2 km/h (1 Bft) 93,62 %
22.10.2022 20:58 14,5 C 13,3 C 10,0 C 89 % 1015,6 hPa 0,0 l/m 0 min 0 min 0 W/m 3,2 km/h (1 Bft) 95,65 %
22.10.2022 21:00 14,4 C 13,3 C 10,0 C 89 % 1015,7 hPa 0,0 l/m 0 min 0 min 0 W/m 3,2 km/h (1 Bft) 97,87 %
22.10.2022 21:02 14,4 C 13,3 C 10,0 C 89 % 1015,7 hPa 0,0 l/m 0 min 0 min 0 W/m 0,0 km/h (0 Bft) 97,56 %
22.10.2022 21:04 14,4 C 13,3 C 10,0 C 90 % 1015,7 hPa 0,0 l/m 0 min 0 min 0 W/m 3,2 km/h (1 Bft) 97,87 %
22.10.2022 21:06 14,4 C 13,3 C 10,0 C 90 % 1015,7 hPa 0,0 l/m 0 min 0 min 0 W/m 0,0 km/h (0 Bft) 94,92 %
22.10.2022 21:08 14,3 C 13,3 C 9,4 C 90 % 1015,7 hPa 0,0 l/m 0 min 0 min 0 W/m 0,0 km/h (0 Bft) 100,00 %
22.10.2022 21:10 14,3 C 13,3 C 9,4 C 90 % 1015,7 hPa 0,0 l/m 0 min 0 min 0 W/m 0,0 km/h (0 Bft) 93,62 %
22.10.2022 21:12 14,3 C 13,3 C 9,4 C 90 % 1015,7 hPa 0,0 l/m 0 min 0 min 0 W/m 0,0 km/h (0 Bft) 97,87 %
22.10.2022 21:14 14,3 C 12,8 C 9,4 C 90 % 1015,6 hPa 0,0 l/m 0 min 0 min 0 W/m 0,0 km/h (0 Bft) 97,87 %
22.10.2022 21:16 14,3 C 12,8 C 9,4 C 90 % 1015,6 hPa 0,0 l/m 0 min 0 min 0 W/m 0,0 km/h (0 Bft) 93,62 %
22.10.2022 21:18 14,3 C 12,8 C 9,4 C 90 % 1015,6 hPa 0,0 l/m 0 min 0 min 0 W/m 0,0 km/h (0 Bft) 97,87 %
22.10.2022 21:20 14,3 C 12,8 C 9,4 C 90 % 1015,5 hPa 0,0 l/m 0 min 0 min 0 W/m 0,0 km/h (0 Bft) 97,83 %
22.10.2022 21:22 14,3 C 12,8 C 9,4 C 90 % 1015,5 hPa 0,0 l/m 0 min 0 min 0 W/m 3,2 km/h (1 Bft) 100,00 %
22.10.2022 21:24 14,3 C 12,8 C 9,4 C 90 % 1015,5 hPa 0,0 l/m 0 min 0 min 0 W/m 3,2 km/h (1 Bft) 97,87 %
22.10.2022 21:26 14,3 C 12,8 C 9,4 C 90 % 1015,5 hPa 0,0 l/m 0 min 0 min 0 W/m 0,0 km/h (0 Bft) 97,87 %
22.10.2022 21:28 14,3 C 12,8 C 9,4 C 90 % 1015,5 hPa 0,0 l/m 0 min 0 min 0 W/m 0,0 km/h (0 Bft) 100,00 %
22.10.2022 21:30 14,2 C 12,8 C 9,4 C 90 % 1015,5 hPa 0,0 l/m 0 min 0 min 0 W/m 0,0 km/h (0 Bft) 100,00 %
22.10.2022 21:32 14,2 C 12,8 C 9,4 C 90 % 1015,4 hPa 0,0 l/m 0 min 0 min 0 W/m 0,0 km/h (0 Bft) 100,00 %
22.10.2022 21:34 14,2 C 12,8 C 9,4 C 90 % 1015,4 hPa 0,0 l/m 0 min 0 min 0 W/m 0,0 km/h (0 Bft) 100,00 %
22.10.2022 21:36 14,1 C 12,8 C 9,4 C 90 % 1015,4 hPa 0,0 l/m 0 min 0 min 0 W/m 3,2 km/h (1 Bft) 100,00 %
22.10.2022 21:38 14,1 C 12,8 C 9,4 C 90 % 1015,4 hPa 0,0 l/m 0 min 0 min 0 W/m 0,0 km/h (0 Bft) 100,00 %
22.10.2022 21:40 14,1 C 12,8 C 9,4 C 91 % 1015,5 hPa 0,0 l/m 0 min 0 min 0 W/m 0,0 km/h (0 Bft) 100,00 %
22.10.2022 21:42 14,1 C 12,8 C 9,4 C 91 % 1015,5 hPa 0,0 l/m 0 min 0 min 0 W/m 0,0 km/h (0 Bft) 97,87 %
22.10.2022 21:44 14,0 C 12,8 C 9,4 C 91 % 1015,5 hPa 0,0 l/m 0 min 0 min 0 W/m 0,0 km/h (0 Bft) 100,00 %
22.10.2022 21:46 14,0 C 12,2 C 8,9 C 91 % 1015,5 hPa 0,0 l/m 0 min 0 min 0 W/m 0,0 km/h (0 Bft) 100,00 %
22.10.2022 21:48 13,9 C 12,2 C 8,9 C 91 % 1015,5 hPa 0,0 l/m 0 min 0 min 0 W/m 0,0 km/h (0 Bft) 97,87 %
22.10.2022 21:50 13,9 C 12,2 C 8,9 C 91 % 1015,6 hPa 0,0 l/m 0 min 0 min 0 W/m 0,0 km/h (0 Bft) 100,00 %
22.10.2022 21:52 13,9 C 12,2 C 8,9 C 91 % 1015,6 hPa 0,0 l/m 0 min 0 min 0 W/m 0,0 km/h (0 Bft) 97,87 %
22.10.2022 21:54 13,9 C 12,2 C 8,9 C 91 % 1015,6 hPa 0,0 l/m 0 min 0 min 0 W/m 0,0 km/h (0 Bft) 100,00 %
22.10.2022 21:56 13,8 C 12,2 C 8,9 C 91 % 1015,6 hPa 0,0 l/m 0 min 0 min 0 W/m 0,0 km/h (0 Bft) 97,83 %
22.10.2022 21:58 13,8 C 12,8 C 8,9 C 91 % 1015,5 hPa 0,0 l/m 0 min 0 min 0 W/m 3,2 km/h (1 Bft) 97,87 %
22.10.2022 22:00 13,8 C 12,8 C 8,9 C 91 % 1015,5 hPa 0,0 l/m 0 min 0 min 0 W/m 3,2 km/h (1 Bft) 100,00 %
22.10.2022 22:02 13,8 C 12,8 C 8,9 C 91 % 1015,5 hPa 0,0 l/m 0 min 0 min 0 W/m 3,2 km/h (1 Bft) 97,87 %
22.10.2022 22:04 13,8 C 12,8 C 8,9 C 91 % 1015,5 hPa 0,0 l/m 0 min 0 min 0 W/m 0,0 km/h (0 Bft) 93,62 %
22.10.2022 22:06 13,8 C 12,8 C 9,4 C 91 % 1015,5 hPa 0,0 l/m 0 min 0 min 0 W/m 3,2 km/h (1 Bft) 95,74 %
22.10.2022 22:08 13,8 C 12,8 C 9,4 C 91 % 1015,5 hPa 0,0 l/m 0 min 0 min 0 W/m 0,0 km/h (0 Bft) 95,65 %
22.10.2022 22:10 13,7 C 12,8 C 9,4 C 92 % 1015,5 hPa 0,0 l/m 0 min 0 min 0 W/m 3,2 km/h (1 Bft) 95,74 %
22.10.2022 22:12 13,7 C 12,8 C 9,4 C 92 % 1015,5 hPa 0,0 l/m 0 min 0 min 0 W/m 3,2 km/h (1 Bft) 97,87 %
22.10.2022 22:14 13,7 C 12,8 C 9,4 C 92 % 1015,5 hPa 0,0 l/m 0 min 0 min 0 W/m 3,2 km/h (1 Bft) 97,87 %
22.10.2022 22:16 13,7 C 12,8 C 9,4 C 92 % 1015,5 hPa 0,0 l/m 0 min 0 min 0 W/m 0,0 km/h (0 Bft) 95,74 %
22.10.2022 22:18 13,7 C 12,8 C 9,4 C 92 % 1015,5 hPa 0,0 l/m 0 min 0 min 0 W/m 3,2 km/h (1 Bft) 97,83 %
22.10.2022 22:20 13,7 C 12,8 C 9,4 C 92 % 1015,5 hPa 0,0 l/m 0 min 0 min 0 W/m 3,2 km/h (1 Bft) 97,87 %
22.10.2022 22:22 13,7 C 12,8 C 9,4 C 92 % 1015,6 hPa 0,0 l/m 0 min 0 min 0 W/m 3,2 km/h (1 Bft) 95,74 %
22.10.2022 22:24 13,7 C 12,8 C 9,4 C 92 % 1015,5 hPa 0,0 l/m 0 min 0 min 0 W/m 3,2 km/h (1 Bft) 97,87 %
22.10.2022 22:26 13,7 C 12,8 C 9,4 C 92 % 1015,6 hPa 0,0 l/m 0 min 0 min 0 W/m 0,0 km/h (0 Bft) 95,74 %
22.10.2022 22:28 13,7 C 12,8 C 9,4 C 92 % 1015,6 hPa 0,0 l/m 0 min 0 min 0 W/m 3,2 km/h (1 Bft) 95,74 %
22.10.2022 22:30 13,6 C 12,8 C 9,4 C 92 % 1015,6 hPa 0,0 l/m 0 min 0 min 0 W/m 3,2 km/h (1 Bft) 100,00 %
22.10.2022 22:32 13,6 C 12,8 C 9,4 C 92 % 1015,5 hPa 0,0 l/m 0 min 0 min 0 W/m 3,2 km/h (1 Bft) 100,00 %
22.10.2022 22:34 13,6 C 12,8 C 9,4 C 93 % 1015,5 hPa 0,0 l/m 0 min 0 min 0 W/m 3,2 km/h (1 Bft) 97,87 %
22.10.2022 22:36 13,6 C 12,8 C 9,4 C 93 % 1015,5 hPa 0,0 l/m 0 min 0 min 0 W/m 0,0 km/h (0 Bft) 100,00 %
22.10.2022 22:38 13,6 C 12,8 C 9,4 C 93 % 1015,5 hPa 0,0 l/m 0 min 0 min 0 W/m 3,2 km/h (1 Bft) 100,00 %
22.10.2022 22:40 13,6 C 12,8 C 9,4 C 93 % 1015,4 hPa 0,0 l/m 0 min 0 min 0 W/m 3,2 km/h (1 Bft) 97,87 %
22.10.2022 22:42 13,6 C 12,8 C 9,4 C 93 % 1015,4 hPa 0,0 l/m 0 min 0 min 0 W/m 3,2 km/h (1 Bft) 100,00 %
22.10.2022 22:44 13,6 C 12,8 C 9,4 C 93 % 1015,4 hPa 0,0 l/m 0 min 0 min 0 W/m 3,2 km/h (1 Bft) 100,00 %
22.10.2022 22:46 13,6 C 12,8 C 9,4 C 93 % 1015,4 hPa 0,0 l/m 0 min 0 min 0 W/m 3,2 km/h (1 Bft) 97,87 %
22.10.2022 22:48 13,6 C 12,8 C 9,4 C 93 % 1015,4 hPa 0,0 l/m 0 min 0 min 0 W/m 3,2 km/h (1 Bft) 100,00 %
22.10.2022 22:50 13,6 C 12,8 C 9,4 C 93 % 1015,4 hPa 0,0 l/m 0 min 0 min 0 W/m 3,2 km/h (1 Bft) 95,74 %
22.10.2022 22:52 13,6 C 12,8 C 9,4 C 93 % 1015,4 hPa 0,0 l/m 0 min 0 min 0 W/m 3,2 km/h (1 Bft) 97,87 %
22.10.2022 22:54 13,6 C 12,8 C 9,4 C 93 % 1015,4 hPa 0,0 l/m 0 min 0 min 0 W/m 3,2 km/h (1 Bft) 100,00 %
22.10.2022 22:56 13,6 C 12,8 C 9,4 C 93 % 1015,4 hPa 0,0 l/m 0 min 0 min 0 W/m 3,2 km/h (1 Bft) 95,74 %
22.10.2022 22:58 13,6 C 12,8 C 9,4 C 93 % 1015,4 hPa 0,0 l/m 0 min 0 min 0 W/m 6,4 km/h (2 Bft) 95,74 %
22.10.2022 23:00 13,6 C 12,8 C 10,0 C 93 % 1015,5 hPa 0,0 l/m 0 min 0 min 0 W/m 3,2 km/h (1 Bft) 100,00 %
22.10.2022 23:02 13,6 C 12,8 C 10,0 C 93 % 1015,5 hPa 0,0 l/m 0 min 0 min 0 W/m 3,2 km/h (1 Bft) 100,00 %
22.10.2022 23:04 13,6 C 12,8 C 10,0 C 93 % 1015,5 hPa 0,0 l/m 0 min 0 min 0 W/m 3,2 km/h (1 Bft) 97,87 %
22.10.2022 23:06 13,6 C 12,8 C 10,0 C 93 % 1015,5 hPa 0,0 l/m 0 min 0 min 0 W/m 3,2 km/h (1 Bft) 95,65 %
22.10.2022 23:08 13,6 C 12,8 C 10,0 C 94 % 1015,5 hPa 0,0 l/m 0 min 0 min 0 W/m 3,2 km/h (1 Bft) 91,49 %
22.10.2022 23:10 13,6 C 12,8 C 10,0 C 94 % 1015,5 hPa 0,0 l/m 0 min 0 min 0 W/m 3,2 km/h (1 Bft) 93,62 %
22.10.2022 23:12 13,6 C 12,8 C 10,0 C 94 % 1015,6 hPa 0,0 l/m 0 min 0 min 0 W/m 3,2 km/h (1 Bft) 95,74 %
22.10.2022 23:14 13,6 C 12,8 C 10,0 C 94 % 1015,6 hPa 0,0 l/m 0 min 0 min 0 W/m 3,2 km/h (1 Bft) 95,74 %
22.10.2022 23:16 13,6 C 12,8 C 10,0 C 94 % 1015,6 hPa 0,0 l/m 0 min 0 min 0 W/m 3,2 km/h (1 Bft) 93,62 %
22.10.2022 23:18 13,6 C 12,8 C 10,0 C 93 % 1015,6 hPa 0,0 l/m 0 min 0 min 0 W/m 3,2 km/h (1 Bft) 95,65 %
22.10.2022 23:20 13,6 C 12,8 C 10,0 C 93 % 1015,6 hPa 0,0 l/m 0 min 0 min 0 W/m 3,2 km/h (1 Bft) 95,74 %
22.10.2022 23:22 13,6 C 12,8 C 10,0 C 94 % 1015,6 hPa 0,0 l/m 0 min 0 min 0 W/m 6,4 km/h (2 Bft) 91,49 %
22.10.2022 23:24 13,6 C 12,8 C 9,4 C 94 % 1015,6 hPa 0,0 l/m 0 min 0 min 0 W/m 3,2 km/h (1 Bft) 93,62 %
22.10.2022 23:26 13,6 C 12,8 C 9,4 C 94 % 1015,6 hPa 0,0 l/m 0 min 0 min 0 W/m 3,2 km/h (1 Bft) 89,36 %
22.10.2022 23:28 13,6 C 12,8 C 9,4 C 94 % 1015,6 hPa 0,0 l/m 0 min 0 min 0 W/m 3,2 km/h (1 Bft) 95,65 %
22.10.2022 23:30 13,6 C 12,8 C 9,4 C 94 % 1015,6 hPa 0,0 l/m 0 min 0 min 0 W/m 3,2 km/h (1 Bft) 95,74 %
22.10.2022 23:32 13,6 C 12,8 C 9,4 C 94 % 1015,6 hPa 0,0 l/m 0 min 0 min 0 W/m 3,2 km/h (1 Bft) 85,11 %
22.10.2022 23:34 13,6 C 12,8 C 9,4 C 94 % 1015,6 hPa 0,0 l/m 0 min 0 min 0 W/m 3,2 km/h (1 Bft) 89,36 %
22.10.2022 23:36 13,6 C 12,8 C 9,4 C 94 % 1015,5 hPa 0,0 l/m 0 min 0 min 0 W/m 3,2 km/h (1 Bft) 95,74 %
22.10.2022 23:38 13,6 C 12,8 C 9,4 C 94 % 1015,5 hPa 0,0 l/m 0 min 0 min 0 W/m 0,0 km/h (0 Bft) 82,98 %
22.10.2022 23:40 13,6 C 12,8 C 9,4 C 94 % 1015,5 hPa 0,0 l/m 0 min 0 min 0 W/m 3,2 km/h (1 Bft) 93,48 %
22.10.2022 23:42 13,5 C 12,8 C 9,4 C 94 % 1015,5 hPa 0,0 l/m 0 min 0 min 0 W/m 3,2 km/h (1 Bft) 57,45 %
22.10.2022 23:44 13,5 C 12,2 C 9,4 C 94 % 1015,6 hPa 0,0 l/m 0 min 0 min 0 W/m 6,4 km/h (2 Bft) 48,94 %
22.10.2022 23:46 13,5 C 12,2 C 9,4 C 94 % 1015,6 hPa 0,0 l/m 0 min 0 min 0 W/m 3,2 km/h (1 Bft) 78,72 %
22.10.2022 23:48 13,4 C 12,2 C 9,4 C 94 % 1015,7 hPa 0,0 l/m 0 min 0 min 0 W/m 6,4 km/h (2 Bft) 93,62 %
22.10.2022 23:50 13,5 C 12,2 C 9,4 C 94 % 1015,6 hPa 0,0 l/m 0 min 0 min 0 W/m 3,2 km/h (1 Bft) 95,74 %
22.10.2022 23:52 13,4 C 12,2 C 9,4 C 94 % 1015,6 hPa 0,0 l/m 0 min 0 min 0 W/m 3,2 km/h (1 Bft) 91,30 %
22.10.2022 23:54 13,4 C 12,2 C 9,4 C 94 % 1015,6 hPa 0,0 l/m 0 min 0 min 0 W/m 3,2 km/h (1 Bft) 46,81 %
22.10.2022 23:56 13,4 C 12,2 C 9,4 C 94 % 1015,6 hPa 0,0 l/m 0 min 0 min 0 W/m 3,2 km/h (1 Bft) 51,06 %
22.10.2022 23:58 13,4 C 12,2 C 9,4 C 94 % 1015,5 hPa 0,0 l/m 0 min 0 min 0 W/m 3,2 km/h (1 Bft) 57,45 %
_ Min-Zeit 08:14 06:14 21:46 17:10 00:08 - - - - 00:00 17:12
Minimum _ 12,3 C 11,7 C 8,9 C 77 % 1009,9 hPa - - - - 0,0 km/h (0 Bft) 27,66 %
_ Max-Zeit 16:48 16:40 14:54 09:38 20:24 05:18 16:16 00:00 16:16 12:08 00:00
Maximum _ 18,0 C 18,3 C 13,9 C 100 % 1015,7 hPa 0,2 l/m 2 min 0 min 334 W/m 35,4 km/h
S-SW (5 Bft)
100,00 %
Durchschnitt _ 14,7 C 14,0 C 11,0 C 92 % 1013,2 hPa #0,2 l/m #38 min. #0 min. 106 W/m 6,8 km/h (2 Bft) 94,87 %
© 2022 W. Hausmann